<?xml version="1.0" encoding="UTF-8" standalone="no" ?>
<gpx xmlns="http://www.topografix.com/GPX/1/1" xmlns:xsi="http://www.w3.org/2001/XMLSchema-instance" xsi:schemaLocation="http://www.topografix.com/GPX/1/1 http://www.topografix.com/GPX/1/1/gpx.xsd" version="1.1" creator="VisuGPX - https://www.visugpx.com">
  <metadata>
    <name>Ronce vtt</name>
  </metadata>
  <trk>
    <name><![CDATA[Ronce vtt_1]]></name>
    <trkseg>
      <trkpt lat="51.41291" lon="-9.20654">
      </trkpt>
      <trkpt lat="51.41291" lon="-9.20654">
      </trkpt>
    </trkseg>
  </trk>
  <trk>
    <name><![CDATA[Ronce-les-Bains V2 - 7226 - UtagawaVTT.com]]></name>
    <extensions>
      <line xmlns="http://www.topografix.com/GPX/gpx_style/0/2">
        <color>0000FF</color>
        <width>4</width>
      </line>
    </extensions>
    <trkseg>
      <trkpt lat="45.79572" lon="-1.16242">
        <ele>7</ele>
        <time>2013-01-06T08:07:19Z</time>
      </trkpt>
      <trkpt lat="45.79572" lon="-1.16242">
        <ele>7</ele>
        <time>2013-01-06T08:07:19Z</time>
      </trkpt>
      <trkpt lat="45.79432" lon="-1.16182">
        <ele>9</ele>
        <time>2013-01-06T08:07:31Z</time>
      </trkpt>
      <trkpt lat="45.79349" lon="-1.16142">
        <ele>9</ele>
        <time>2013-01-06T08:07:41Z</time>
      </trkpt>
      <trkpt lat="45.7924" lon="-1.16107">
        <ele>14</ele>
        <time>2013-01-06T08:07:49Z</time>
      </trkpt>
      <trkpt lat="45.79257" lon="-1.16131">
        <ele>12</ele>
        <time>2013-01-06T08:07:53Z</time>
      </trkpt>
      <trkpt lat="45.79257" lon="-1.16215">
        <ele>14</ele>
        <time>2013-01-06T08:08:04Z</time>
      </trkpt>
      <trkpt lat="45.79252" lon="-1.1626">
        <ele>17</ele>
        <time>2013-01-06T08:08:12Z</time>
      </trkpt>
      <trkpt lat="45.79265" lon="-1.16303">
        <ele>15</ele>
        <time>2013-01-06T08:08:18Z</time>
      </trkpt>
      <trkpt lat="45.79278" lon="-1.16324">
        <ele>15</ele>
        <time>2013-01-06T08:08:27Z</time>
      </trkpt>
      <trkpt lat="45.7929" lon="-1.16389">
        <ele>15</ele>
        <time>2013-01-06T08:08:36Z</time>
      </trkpt>
      <trkpt lat="45.79273" lon="-1.16411">
        <ele>15</ele>
        <time>2013-01-06T08:08:46Z</time>
      </trkpt>
      <trkpt lat="45.79261" lon="-1.16424">
        <ele>15</ele>
        <time>2013-01-06T08:08:52Z</time>
      </trkpt>
      <trkpt lat="45.7927" lon="-1.16457">
        <ele>15</ele>
        <time>2013-01-06T08:08:58Z</time>
      </trkpt>
      <trkpt lat="45.79258" lon="-1.16478">
        <ele>16</ele>
        <time>2013-01-06T08:09:05Z</time>
      </trkpt>
      <trkpt lat="45.79258" lon="-1.16508">
        <ele>17</ele>
        <time>2013-01-06T08:09:12Z</time>
      </trkpt>
      <trkpt lat="45.79251" lon="-1.16523">
        <ele>17</ele>
        <time>2013-01-06T08:09:21Z</time>
      </trkpt>
      <trkpt lat="45.7924" lon="-1.1655">
        <ele>18</ele>
        <time>2013-01-06T08:09:28Z</time>
      </trkpt>
      <trkpt lat="45.79222" lon="-1.16573">
        <ele>18</ele>
        <time>2013-01-06T08:09:33Z</time>
      </trkpt>
      <trkpt lat="45.79204" lon="-1.16599">
        <ele>18</ele>
        <time>2013-01-06T08:09:40Z</time>
      </trkpt>
      <trkpt lat="45.79189" lon="-1.16622">
        <ele>17</ele>
        <time>2013-01-06T08:09:50Z</time>
      </trkpt>
      <trkpt lat="45.79187" lon="-1.16643">
        <ele>17</ele>
        <time>2013-01-06T08:10:01Z</time>
      </trkpt>
      <trkpt lat="45.79184" lon="-1.16658">
        <ele>17</ele>
        <time>2013-01-06T08:10:11Z</time>
      </trkpt>
      <trkpt lat="45.79175" lon="-1.1669">
        <ele>15</ele>
        <time>2013-01-06T08:10:20Z</time>
      </trkpt>
      <trkpt lat="45.79156" lon="-1.16705">
        <ele>17</ele>
        <time>2013-01-06T08:10:31Z</time>
      </trkpt>
      <trkpt lat="45.79141" lon="-1.16725">
        <ele>16</ele>
        <time>2013-01-06T08:10:41Z</time>
      </trkpt>
      <trkpt lat="45.79121" lon="-1.16739">
        <ele>17</ele>
        <time>2013-01-06T08:10:51Z</time>
      </trkpt>
      <trkpt lat="45.79092" lon="-1.16752">
        <ele>17</ele>
        <time>2013-01-06T08:11:01Z</time>
      </trkpt>
      <trkpt lat="45.79078" lon="-1.16796">
        <ele>17</ele>
        <time>2013-01-06T08:11:12Z</time>
      </trkpt>
      <trkpt lat="45.79073" lon="-1.16841">
        <ele>17</ele>
        <time>2013-01-06T08:11:22Z</time>
      </trkpt>
      <trkpt lat="45.79075" lon="-1.16875">
        <ele>17</ele>
        <time>2013-01-06T08:11:32Z</time>
      </trkpt>
      <trkpt lat="45.79069" lon="-1.16895">
        <ele>16</ele>
        <time>2013-01-06T08:11:39Z</time>
      </trkpt>
      <trkpt lat="45.79055" lon="-1.16944">
        <ele>16</ele>
        <time>2013-01-06T08:11:49Z</time>
      </trkpt>
      <trkpt lat="45.79042" lon="-1.16972">
        <ele>16</ele>
        <time>2013-01-06T08:11:57Z</time>
      </trkpt>
      <trkpt lat="45.79031" lon="-1.16997">
        <ele>16</ele>
        <time>2013-01-06T08:12:04Z</time>
      </trkpt>
      <trkpt lat="45.79023" lon="-1.17009">
        <ele>15</ele>
        <time>2013-01-06T08:12:11Z</time>
      </trkpt>
      <trkpt lat="45.78999" lon="-1.17028">
        <ele>15</ele>
        <time>2013-01-06T08:12:23Z</time>
      </trkpt>
      <trkpt lat="45.78986" lon="-1.17052">
        <ele>15</ele>
        <time>2013-01-06T08:12:31Z</time>
      </trkpt>
      <trkpt lat="45.78982" lon="-1.17071">
        <ele>15</ele>
        <time>2013-01-06T08:12:37Z</time>
      </trkpt>
      <trkpt lat="45.78984" lon="-1.17095">
        <ele>15</ele>
        <time>2013-01-06T08:12:47Z</time>
      </trkpt>
      <trkpt lat="45.78969" lon="-1.17132">
        <ele>15</ele>
        <time>2013-01-06T08:12:54Z</time>
      </trkpt>
      <trkpt lat="45.78956" lon="-1.17139">
        <ele>15</ele>
        <time>2013-01-06T08:13:00Z</time>
      </trkpt>
      <trkpt lat="45.78946" lon="-1.1714">
        <ele>15</ele>
        <time>2013-01-06T08:13:08Z</time>
      </trkpt>
      <trkpt lat="45.78941" lon="-1.17175">
        <ele>15</ele>
        <time>2013-01-06T08:13:20Z</time>
      </trkpt>
      <trkpt lat="45.78924" lon="-1.17183">
        <ele>15</ele>
        <time>2013-01-06T08:13:28Z</time>
      </trkpt>
      <trkpt lat="45.78902" lon="-1.17192">
        <ele>16</ele>
        <time>2013-01-06T08:13:39Z</time>
      </trkpt>
      <trkpt lat="45.7889" lon="-1.17205">
        <ele>17</ele>
        <time>2013-01-06T08:13:47Z</time>
      </trkpt>
      <trkpt lat="45.78867" lon="-1.17227">
        <ele>17</ele>
        <time>2013-01-06T08:13:51Z</time>
      </trkpt>
      <trkpt lat="45.78854" lon="-1.17241">
        <ele>18</ele>
        <time>2013-01-06T08:13:56Z</time>
      </trkpt>
      <trkpt lat="45.78838" lon="-1.17271">
        <ele>17</ele>
        <time>2013-01-06T08:14:04Z</time>
      </trkpt>
      <trkpt lat="45.78817" lon="-1.17301">
        <ele>19</ele>
        <time>2013-01-06T08:14:13Z</time>
      </trkpt>
      <trkpt lat="45.78827" lon="-1.17312">
        <ele>18</ele>
        <time>2013-01-06T08:14:23Z</time>
      </trkpt>
      <trkpt lat="45.78838" lon="-1.17325">
        <ele>16</ele>
        <time>2013-01-06T08:14:30Z</time>
      </trkpt>
      <trkpt lat="45.78844" lon="-1.17349">
        <ele>15</ele>
        <time>2013-01-06T08:14:38Z</time>
      </trkpt>
      <trkpt lat="45.78864" lon="-1.17381">
        <ele>14</ele>
        <time>2013-01-06T08:14:47Z</time>
      </trkpt>
      <trkpt lat="45.78864" lon="-1.17418">
        <ele>15</ele>
        <time>2013-01-06T08:14:59Z</time>
      </trkpt>
      <trkpt lat="45.78871" lon="-1.17441">
        <ele>15</ele>
        <time>2013-01-06T08:15:10Z</time>
      </trkpt>
      <trkpt lat="45.7886" lon="-1.17456">
        <ele>15</ele>
        <time>2013-01-06T08:15:21Z</time>
      </trkpt>
      <trkpt lat="45.78858" lon="-1.17485">
        <ele>16</ele>
        <time>2013-01-06T08:15:33Z</time>
      </trkpt>
      <trkpt lat="45.7884" lon="-1.17508">
        <ele>16</ele>
        <time>2013-01-06T08:15:40Z</time>
      </trkpt>
      <trkpt lat="45.7881" lon="-1.17536">
        <ele>15</ele>
        <time>2013-01-06T08:15:48Z</time>
      </trkpt>
      <trkpt lat="45.78789" lon="-1.17577">
        <ele>15</ele>
        <time>2013-01-06T08:15:58Z</time>
      </trkpt>
      <trkpt lat="45.7876" lon="-1.17618">
        <ele>17</ele>
        <time>2013-01-06T08:16:07Z</time>
      </trkpt>
      <trkpt lat="45.78742" lon="-1.17635">
        <ele>17</ele>
        <time>2013-01-06T08:16:17Z</time>
      </trkpt>
      <trkpt lat="45.78737" lon="-1.17656">
        <ele>17</ele>
        <time>2013-01-06T08:16:22Z</time>
      </trkpt>
      <trkpt lat="45.78732" lon="-1.17686">
        <ele>18</ele>
        <time>2013-01-06T08:16:30Z</time>
      </trkpt>
      <trkpt lat="45.78721" lon="-1.17711">
        <ele>19</ele>
        <time>2013-01-06T08:16:39Z</time>
      </trkpt>
      <trkpt lat="45.78698" lon="-1.17728">
        <ele>18</ele>
        <time>2013-01-06T08:16:44Z</time>
      </trkpt>
      <trkpt lat="45.78691" lon="-1.17736">
        <ele>18</ele>
        <time>2013-01-06T08:16:51Z</time>
      </trkpt>
      <trkpt lat="45.78678" lon="-1.17741">
        <ele>18</ele>
        <time>2013-01-06T08:16:58Z</time>
      </trkpt>
      <trkpt lat="45.7865" lon="-1.17739">
        <ele>16</ele>
        <time>2013-01-06T08:17:01Z</time>
      </trkpt>
      <trkpt lat="45.78634" lon="-1.17743">
        <ele>16</ele>
        <time>2013-01-06T08:17:06Z</time>
      </trkpt>
      <trkpt lat="45.78625" lon="-1.17768">
        <ele>17</ele>
        <time>2013-01-06T08:17:13Z</time>
      </trkpt>
      <trkpt lat="45.78619" lon="-1.17795">
        <ele>17</ele>
        <time>2013-01-06T08:17:19Z</time>
      </trkpt>
      <trkpt lat="45.78619" lon="-1.17801">
        <ele>17</ele>
        <time>2013-01-06T08:17:28Z</time>
      </trkpt>
      <trkpt lat="45.78616" lon="-1.17813">
        <ele>17</ele>
        <time>2013-01-06T08:17:40Z</time>
      </trkpt>
      <trkpt lat="45.78613" lon="-1.17839">
        <ele>19</ele>
        <time>2013-01-06T08:17:48Z</time>
      </trkpt>
      <trkpt lat="45.78613" lon="-1.17854">
        <ele>19</ele>
        <time>2013-01-06T08:17:55Z</time>
      </trkpt>
      <trkpt lat="45.78614" lon="-1.17884">
        <ele>19</ele>
        <time>2013-01-06T08:18:01Z</time>
      </trkpt>
      <trkpt lat="45.78622" lon="-1.17921">
        <ele>20</ele>
        <time>2013-01-06T08:18:10Z</time>
      </trkpt>
      <trkpt lat="45.78618" lon="-1.17942">
        <ele>20</ele>
        <time>2013-01-06T08:18:20Z</time>
      </trkpt>
      <trkpt lat="45.7861" lon="-1.17959">
        <ele>20</ele>
        <time>2013-01-06T08:18:29Z</time>
      </trkpt>
      <trkpt lat="45.78605" lon="-1.17976">
        <ele>21</ele>
        <time>2013-01-06T08:18:39Z</time>
      </trkpt>
      <trkpt lat="45.78599" lon="-1.1802">
        <ele>20</ele>
        <time>2013-01-06T08:18:47Z</time>
      </trkpt>
      <trkpt lat="45.78618" lon="-1.18064">
        <ele>19</ele>
        <time>2013-01-06T08:18:55Z</time>
      </trkpt>
      <trkpt lat="45.78627" lon="-1.18094">
        <ele>17</ele>
        <time>2013-01-06T08:19:01Z</time>
      </trkpt>
      <trkpt lat="45.78605" lon="-1.18109">
        <ele>17</ele>
        <time>2013-01-06T08:19:10Z</time>
      </trkpt>
      <trkpt lat="45.78601" lon="-1.18138">
        <ele>16</ele>
        <time>2013-01-06T08:19:20Z</time>
      </trkpt>
      <trkpt lat="45.786" lon="-1.18168">
        <ele>15</ele>
        <time>2013-01-06T08:19:26Z</time>
      </trkpt>
      <trkpt lat="45.786" lon="-1.18201">
        <ele>14</ele>
        <time>2013-01-06T08:19:35Z</time>
      </trkpt>
      <trkpt lat="45.7859" lon="-1.1823">
        <ele>14</ele>
        <time>2013-01-06T08:19:45Z</time>
      </trkpt>
      <trkpt lat="45.7859" lon="-1.18264">
        <ele>14</ele>
        <time>2013-01-06T08:19:48Z</time>
      </trkpt>
      <trkpt lat="45.7859" lon="-1.18285">
        <ele>14</ele>
        <time>2013-01-06T08:19:57Z</time>
      </trkpt>
      <trkpt lat="45.78584" lon="-1.18309">
        <ele>14</ele>
        <time>2013-01-06T08:20:13Z</time>
      </trkpt>
      <trkpt lat="45.78579" lon="-1.18329">
        <ele>14</ele>
        <time>2013-01-06T08:20:20Z</time>
      </trkpt>
      <trkpt lat="45.78575" lon="-1.18337">
        <ele>14</ele>
        <time>2013-01-06T08:20:26Z</time>
      </trkpt>
      <trkpt lat="45.78574" lon="-1.1835">
        <ele>14</ele>
        <time>2013-01-06T08:20:30Z</time>
      </trkpt>
      <trkpt lat="45.78569" lon="-1.18356">
        <ele>14</ele>
        <time>2013-01-06T08:20:32Z</time>
      </trkpt>
      <trkpt lat="45.78558" lon="-1.18364">
        <ele>14</ele>
        <time>2013-01-06T08:20:43Z</time>
      </trkpt>
      <trkpt lat="45.7856" lon="-1.18368">
        <ele>14</ele>
        <time>2013-01-06T08:20:51Z</time>
      </trkpt>
      <trkpt lat="45.7856" lon="-1.1837">
        <ele>14</ele>
        <time>2013-01-06T08:21:01Z</time>
      </trkpt>
      <trkpt lat="45.78558" lon="-1.18378">
        <ele>14</ele>
        <time>2013-01-06T08:21:10Z</time>
      </trkpt>
      <trkpt lat="45.78569" lon="-1.18394">
        <ele>13</ele>
        <time>2013-01-06T08:21:17Z</time>
      </trkpt>
      <trkpt lat="45.78581" lon="-1.1842">
        <ele>12</ele>
        <time>2013-01-06T08:21:23Z</time>
      </trkpt>
      <trkpt lat="45.78609" lon="-1.18428">
        <ele>12</ele>
        <time>2013-01-06T08:21:29Z</time>
      </trkpt>
      <trkpt lat="45.78628" lon="-1.18427">
        <ele>12</ele>
        <time>2013-01-06T08:21:35Z</time>
      </trkpt>
      <trkpt lat="45.78629" lon="-1.18424">
        <ele>12</ele>
        <time>2013-01-06T08:21:54Z</time>
      </trkpt>
      <trkpt lat="45.78629" lon="-1.18424">
        <ele>12</ele>
        <time>2013-01-06T08:22:08Z</time>
      </trkpt>
      <trkpt lat="45.78631" lon="-1.18421">
        <ele>12</ele>
        <time>2013-01-06T08:22:16Z</time>
      </trkpt>
      <trkpt lat="45.78635" lon="-1.18422">
        <ele>12</ele>
        <time>2013-01-06T08:22:27Z</time>
      </trkpt>
      <trkpt lat="45.78637" lon="-1.18426">
        <ele>12</ele>
        <time>2013-01-06T08:22:39Z</time>
      </trkpt>
      <trkpt lat="45.78639" lon="-1.18427">
        <ele>12</ele>
        <time>2013-01-06T08:22:46Z</time>
      </trkpt>
      <trkpt lat="45.78645" lon="-1.1844">
        <ele>12</ele>
        <time>2013-01-06T08:22:57Z</time>
      </trkpt>
      <trkpt lat="45.78659" lon="-1.18485">
        <ele>12</ele>
        <time>2013-01-06T08:23:04Z</time>
      </trkpt>
      <trkpt lat="45.78675" lon="-1.18522">
        <ele>13</ele>
        <time>2013-01-06T08:23:13Z</time>
      </trkpt>
      <trkpt lat="45.78677" lon="-1.18542">
        <ele>14</ele>
        <time>2013-01-06T08:23:22Z</time>
      </trkpt>
      <trkpt lat="45.78692" lon="-1.186">
        <ele>13</ele>
        <time>2013-01-06T08:23:33Z</time>
      </trkpt>
      <trkpt lat="45.78706" lon="-1.18607">
        <ele>13</ele>
        <time>2013-01-06T08:23:43Z</time>
      </trkpt>
      <trkpt lat="45.78721" lon="-1.18637">
        <ele>13</ele>
        <time>2013-01-06T08:23:54Z</time>
      </trkpt>
      <trkpt lat="45.78745" lon="-1.18674">
        <ele>12</ele>
        <time>2013-01-06T08:24:03Z</time>
      </trkpt>
      <trkpt lat="45.78769" lon="-1.18718">
        <ele>12</ele>
        <time>2013-01-06T08:24:11Z</time>
      </trkpt>
      <trkpt lat="45.78794" lon="-1.18745">
        <ele>13</ele>
        <time>2013-01-06T08:24:17Z</time>
      </trkpt>
      <trkpt lat="45.78811" lon="-1.1877">
        <ele>14</ele>
        <time>2013-01-06T08:24:27Z</time>
      </trkpt>
      <trkpt lat="45.78829" lon="-1.18787">
        <ele>14</ele>
        <time>2013-01-06T08:24:37Z</time>
      </trkpt>
      <trkpt lat="45.78834" lon="-1.1881">
        <ele>15</ele>
        <time>2013-01-06T08:24:50Z</time>
      </trkpt>
      <trkpt lat="45.78843" lon="-1.18829">
        <ele>15</ele>
        <time>2013-01-06T08:25:00Z</time>
      </trkpt>
      <trkpt lat="45.78861" lon="-1.18862">
        <ele>15</ele>
        <time>2013-01-06T08:25:15Z</time>
      </trkpt>
      <trkpt lat="45.78874" lon="-1.18918">
        <ele>14</ele>
        <time>2013-01-06T08:25:25Z</time>
      </trkpt>
      <trkpt lat="45.78876" lon="-1.19005">
        <ele>13</ele>
        <time>2013-01-06T08:25:34Z</time>
      </trkpt>
      <trkpt lat="45.78877" lon="-1.19082">
        <ele>12</ele>
        <time>2013-01-06T08:25:45Z</time>
      </trkpt>
      <trkpt lat="45.78873" lon="-1.19213">
        <ele>11</ele>
        <time>2013-01-06T08:25:52Z</time>
      </trkpt>
      <trkpt lat="45.78866" lon="-1.19272">
        <ele>12</ele>
        <time>2013-01-06T08:26:01Z</time>
      </trkpt>
      <trkpt lat="45.78868" lon="-1.19321">
        <ele>12</ele>
        <time>2013-01-06T08:26:09Z</time>
      </trkpt>
      <trkpt lat="45.78855" lon="-1.1937">
        <ele>13</ele>
        <time>2013-01-06T08:26:23Z</time>
      </trkpt>
      <trkpt lat="45.7886" lon="-1.19392">
        <ele>13</ele>
        <time>2013-01-06T08:26:29Z</time>
      </trkpt>
      <trkpt lat="45.78859" lon="-1.1942">
        <ele>13</ele>
        <time>2013-01-06T08:26:33Z</time>
      </trkpt>
      <trkpt lat="45.78849" lon="-1.1944">
        <ele>13</ele>
        <time>2013-01-06T08:26:41Z</time>
      </trkpt>
      <trkpt lat="45.7884" lon="-1.19481">
        <ele>14</ele>
        <time>2013-01-06T08:26:46Z</time>
      </trkpt>
      <trkpt lat="45.78843" lon="-1.195">
        <ele>15</ele>
        <time>2013-01-06T08:26:55Z</time>
      </trkpt>
      <trkpt lat="45.78843" lon="-1.19522">
        <ele>14</ele>
        <time>2013-01-06T08:26:59Z</time>
      </trkpt>
      <trkpt lat="45.78848" lon="-1.19547">
        <ele>14</ele>
        <time>2013-01-06T08:27:05Z</time>
      </trkpt>
      <trkpt lat="45.78843" lon="-1.19572">
        <ele>14</ele>
        <time>2013-01-06T08:27:14Z</time>
      </trkpt>
      <trkpt lat="45.78836" lon="-1.19609">
        <ele>14</ele>
        <time>2013-01-06T08:27:25Z</time>
      </trkpt>
      <trkpt lat="45.78833" lon="-1.19625">
        <ele>18</ele>
        <time>2013-01-06T08:27:32Z</time>
      </trkpt>
      <trkpt lat="45.7883" lon="-1.1965">
        <ele>18</ele>
        <time>2013-01-06T08:27:41Z</time>
      </trkpt>
      <trkpt lat="45.78843" lon="-1.19677">
        <ele>15</ele>
        <time>2013-01-06T08:27:51Z</time>
      </trkpt>
      <trkpt lat="45.78843" lon="-1.19686">
        <ele>15</ele>
        <time>2013-01-06T08:27:55Z</time>
      </trkpt>
      <trkpt lat="45.78846" lon="-1.19692">
        <ele>14</ele>
        <time>2013-01-06T08:28:03Z</time>
      </trkpt>
      <trkpt lat="45.78845" lon="-1.19703">
        <ele>14</ele>
        <time>2013-01-06T08:28:10Z</time>
      </trkpt>
      <trkpt lat="45.78843" lon="-1.19712">
        <ele>15</ele>
        <time>2013-01-06T08:28:12Z</time>
      </trkpt>
      <trkpt lat="45.78845" lon="-1.19713">
        <ele>15</ele>
        <time>2013-01-06T08:28:19Z</time>
      </trkpt>
      <trkpt lat="45.78852" lon="-1.19732">
        <ele>15</ele>
        <time>2013-01-06T08:28:27Z</time>
      </trkpt>
      <trkpt lat="45.78853" lon="-1.19751">
        <ele>16</ele>
        <time>2013-01-06T08:28:36Z</time>
      </trkpt>
      <trkpt lat="45.78853" lon="-1.19759">
        <ele>16</ele>
        <time>2013-01-06T08:28:40Z</time>
      </trkpt>
      <trkpt lat="45.78846" lon="-1.19779">
        <ele>16</ele>
        <time>2013-01-06T08:28:55Z</time>
      </trkpt>
      <trkpt lat="45.78846" lon="-1.19782">
        <ele>16</ele>
        <time>2013-01-06T08:29:06Z</time>
      </trkpt>
      <trkpt lat="45.78844" lon="-1.1979">
        <ele>17</ele>
        <time>2013-01-06T08:29:11Z</time>
      </trkpt>
      <trkpt lat="45.78843" lon="-1.19793">
        <ele>17</ele>
        <time>2013-01-06T08:29:17Z</time>
      </trkpt>
      <trkpt lat="45.7884" lon="-1.19795">
        <ele>17</ele>
        <time>2013-01-06T08:29:30Z</time>
      </trkpt>
      <trkpt lat="45.78834" lon="-1.19804">
        <ele>17</ele>
        <time>2013-01-06T08:30:49Z</time>
      </trkpt>
      <trkpt lat="45.78834" lon="-1.19805">
        <ele>17</ele>
        <time>2013-01-06T08:31:16Z</time>
      </trkpt>
      <trkpt lat="45.78829" lon="-1.19819">
        <ele>21</ele>
        <time>2013-01-06T08:31:28Z</time>
      </trkpt>
      <trkpt lat="45.78815" lon="-1.19847">
        <ele>21</ele>
        <time>2013-01-06T08:31:35Z</time>
      </trkpt>
      <trkpt lat="45.78814" lon="-1.19848">
        <ele>21</ele>
        <time>2013-01-06T08:31:55Z</time>
      </trkpt>
      <trkpt lat="45.78816" lon="-1.19853">
        <ele>21</ele>
        <time>2013-01-06T08:34:19Z</time>
      </trkpt>
      <trkpt lat="45.78803" lon="-1.19859">
        <ele>21</ele>
        <time>2013-01-06T08:34:24Z</time>
      </trkpt>
      <trkpt lat="45.78795" lon="-1.19864">
        <ele>22</ele>
        <time>2013-01-06T08:34:32Z</time>
      </trkpt>
      <trkpt lat="45.78801" lon="-1.19855">
        <ele>22</ele>
        <time>2013-01-06T08:34:45Z</time>
      </trkpt>
      <trkpt lat="45.78812" lon="-1.1985">
        <ele>21</ele>
        <time>2013-01-06T08:34:48Z</time>
      </trkpt>
      <trkpt lat="45.78811" lon="-1.19868">
        <ele>21</ele>
        <time>2013-01-06T08:34:55Z</time>
      </trkpt>
      <trkpt lat="45.78818" lon="-1.19895">
        <ele>20</ele>
        <time>2013-01-06T08:34:58Z</time>
      </trkpt>
      <trkpt lat="45.78831" lon="-1.19924">
        <ele>18</ele>
        <time>2013-01-06T08:35:08Z</time>
      </trkpt>
      <trkpt lat="45.78831" lon="-1.19937">
        <ele>18</ele>
        <time>2013-01-06T08:35:18Z</time>
      </trkpt>
      <trkpt lat="45.78848" lon="-1.19944">
        <ele>16</ele>
        <time>2013-01-06T08:35:34Z</time>
      </trkpt>
      <trkpt lat="45.78851" lon="-1.19948">
        <ele>16</ele>
        <time>2013-01-06T08:35:52Z</time>
      </trkpt>
      <trkpt lat="45.78876" lon="-1.19976">
        <ele>15</ele>
        <time>2013-01-06T08:35:59Z</time>
      </trkpt>
      <trkpt lat="45.78887" lon="-1.19997">
        <ele>15</ele>
        <time>2013-01-06T08:36:06Z</time>
      </trkpt>
      <trkpt lat="45.7889" lon="-1.20003">
        <ele>15</ele>
        <time>2013-01-06T08:36:14Z</time>
      </trkpt>
      <trkpt lat="45.78887" lon="-1.20001">
        <ele>15</ele>
        <time>2013-01-06T08:36:18Z</time>
      </trkpt>
      <trkpt lat="45.78884" lon="-1.20003">
        <ele>15</ele>
        <time>2013-01-06T08:36:27Z</time>
      </trkpt>
      <trkpt lat="45.78879" lon="-1.20023">
        <ele>15</ele>
        <time>2013-01-06T08:36:33Z</time>
      </trkpt>
      <trkpt lat="45.78872" lon="-1.20044">
        <ele>16</ele>
        <time>2013-01-06T08:36:42Z</time>
      </trkpt>
      <trkpt lat="45.78866" lon="-1.20053">
        <ele>16</ele>
        <time>2013-01-06T08:36:50Z</time>
      </trkpt>
      <trkpt lat="45.78868" lon="-1.20082">
        <ele>16</ele>
        <time>2013-01-06T08:37:02Z</time>
      </trkpt>
      <trkpt lat="45.78863" lon="-1.2011">
        <ele>17</ele>
        <time>2013-01-06T08:37:09Z</time>
      </trkpt>
      <trkpt lat="45.7888" lon="-1.2012">
        <ele>17</ele>
        <time>2013-01-06T08:37:15Z</time>
      </trkpt>
      <trkpt lat="45.78891" lon="-1.20141">
        <ele>17</ele>
        <time>2013-01-06T08:37:26Z</time>
      </trkpt>
      <trkpt lat="45.78899" lon="-1.20193">
        <ele>17</ele>
        <time>2013-01-06T08:37:34Z</time>
      </trkpt>
      <trkpt lat="45.78898" lon="-1.20217">
        <ele>17</ele>
        <time>2013-01-06T08:37:38Z</time>
      </trkpt>
      <trkpt lat="45.78908" lon="-1.2023">
        <ele>17</ele>
        <time>2013-01-06T08:37:45Z</time>
      </trkpt>
      <trkpt lat="45.78929" lon="-1.20272">
        <ele>15</ele>
        <time>2013-01-06T08:37:55Z</time>
      </trkpt>
      <trkpt lat="45.78935" lon="-1.20299">
        <ele>14</ele>
        <time>2013-01-06T08:38:06Z</time>
      </trkpt>
      <trkpt lat="45.78944" lon="-1.20306">
        <ele>14</ele>
        <time>2013-01-06T08:38:17Z</time>
      </trkpt>
      <trkpt lat="45.78966" lon="-1.20314">
        <ele>14</ele>
        <time>2013-01-06T08:38:26Z</time>
      </trkpt>
      <trkpt lat="45.78986" lon="-1.20342">
        <ele>12</ele>
        <time>2013-01-06T08:38:35Z</time>
      </trkpt>
      <trkpt lat="45.79" lon="-1.20383">
        <ele>12</ele>
        <time>2013-01-06T08:38:42Z</time>
      </trkpt>
      <trkpt lat="45.7901" lon="-1.20432">
        <ele>10</ele>
        <time>2013-01-06T08:38:49Z</time>
      </trkpt>
      <trkpt lat="45.79006" lon="-1.20463">
        <ele>10</ele>
        <time>2013-01-06T08:38:59Z</time>
      </trkpt>
      <trkpt lat="45.7902" lon="-1.20496">
        <ele>11</ele>
        <time>2013-01-06T08:39:04Z</time>
      </trkpt>
      <trkpt lat="45.79028" lon="-1.20519">
        <ele>11</ele>
        <time>2013-01-06T08:39:14Z</time>
      </trkpt>
      <trkpt lat="45.79035" lon="-1.20551">
        <ele>11</ele>
        <time>2013-01-06T08:39:25Z</time>
      </trkpt>
      <trkpt lat="45.7903" lon="-1.20591">
        <ele>12</ele>
        <time>2013-01-06T08:39:33Z</time>
      </trkpt>
      <trkpt lat="45.79029" lon="-1.20609">
        <ele>12</ele>
        <time>2013-01-06T08:39:43Z</time>
      </trkpt>
      <trkpt lat="45.79028" lon="-1.20629">
        <ele>12</ele>
        <time>2013-01-06T08:39:54Z</time>
      </trkpt>
      <trkpt lat="45.79025" lon="-1.20655">
        <ele>12</ele>
        <time>2013-01-06T08:40:05Z</time>
      </trkpt>
      <trkpt lat="45.79018" lon="-1.20679">
        <ele>13</ele>
        <time>2013-01-06T08:40:14Z</time>
      </trkpt>
      <trkpt lat="45.79039" lon="-1.20701">
        <ele>12</ele>
        <time>2013-01-06T08:40:21Z</time>
      </trkpt>
      <trkpt lat="45.79064" lon="-1.20729">
        <ele>12</ele>
        <time>2013-01-06T08:40:32Z</time>
      </trkpt>
      <trkpt lat="45.79071" lon="-1.20764">
        <ele>11</ele>
        <time>2013-01-06T08:40:40Z</time>
      </trkpt>
      <trkpt lat="45.79071" lon="-1.20802">
        <ele>11</ele>
        <time>2013-01-06T08:40:49Z</time>
      </trkpt>
      <trkpt lat="45.79063" lon="-1.20819">
        <ele>11</ele>
        <time>2013-01-06T08:40:54Z</time>
      </trkpt>
      <trkpt lat="45.7904" lon="-1.2084">
        <ele>11</ele>
        <time>2013-01-06T08:41:03Z</time>
      </trkpt>
      <trkpt lat="45.79032" lon="-1.20875">
        <ele>11</ele>
        <time>2013-01-06T08:41:10Z</time>
      </trkpt>
      <trkpt lat="45.79051" lon="-1.20902">
        <ele>11</ele>
        <time>2013-01-06T08:41:16Z</time>
      </trkpt>
      <trkpt lat="45.79054" lon="-1.20918">
        <ele>10</ele>
        <time>2013-01-06T08:41:24Z</time>
      </trkpt>
      <trkpt lat="45.79047" lon="-1.20961">
        <ele>10</ele>
        <time>2013-01-06T08:41:30Z</time>
      </trkpt>
      <trkpt lat="45.79042" lon="-1.20986">
        <ele>10</ele>
        <time>2013-01-06T08:41:42Z</time>
      </trkpt>
      <trkpt lat="45.79039" lon="-1.21003">
        <ele>9</ele>
        <time>2013-01-06T08:41:50Z</time>
      </trkpt>
      <trkpt lat="45.79031" lon="-1.21034">
        <ele>9</ele>
        <time>2013-01-06T08:41:58Z</time>
      </trkpt>
      <trkpt lat="45.7903" lon="-1.21057">
        <ele>9</ele>
        <time>2013-01-06T08:42:04Z</time>
      </trkpt>
      <trkpt lat="45.79021" lon="-1.21098">
        <ele>9</ele>
        <time>2013-01-06T08:42:12Z</time>
      </trkpt>
      <trkpt lat="45.79026" lon="-1.21127">
        <ele>9</ele>
        <time>2013-01-06T08:42:16Z</time>
      </trkpt>
      <trkpt lat="45.79032" lon="-1.21154">
        <ele>9</ele>
        <time>2013-01-06T08:42:26Z</time>
      </trkpt>
      <trkpt lat="45.79026" lon="-1.21166">
        <ele>9</ele>
        <time>2013-01-06T08:42:32Z</time>
      </trkpt>
      <trkpt lat="45.79009" lon="-1.21176">
        <ele>9</ele>
        <time>2013-01-06T08:42:39Z</time>
      </trkpt>
      <trkpt lat="45.79005" lon="-1.21195">
        <ele>9</ele>
        <time>2013-01-06T08:42:46Z</time>
      </trkpt>
      <trkpt lat="45.79001" lon="-1.2123">
        <ele>9</ele>
        <time>2013-01-06T08:42:54Z</time>
      </trkpt>
      <trkpt lat="45.78986" lon="-1.21245">
        <ele>9</ele>
        <time>2013-01-06T08:42:59Z</time>
      </trkpt>
      <trkpt lat="45.78989" lon="-1.21278">
        <ele>8</ele>
        <time>2013-01-06T08:43:05Z</time>
      </trkpt>
      <trkpt lat="45.78989" lon="-1.21304">
        <ele>8</ele>
        <time>2013-01-06T08:43:17Z</time>
      </trkpt>
      <trkpt lat="45.79006" lon="-1.21321">
        <ele>8</ele>
        <time>2013-01-06T08:44:25Z</time>
      </trkpt>
      <trkpt lat="45.79009" lon="-1.21334">
        <ele>8</ele>
        <time>2013-01-06T08:44:33Z</time>
      </trkpt>
      <trkpt lat="45.78993" lon="-1.21335">
        <ele>8</ele>
        <time>2013-01-06T08:44:43Z</time>
      </trkpt>
      <trkpt lat="45.78966" lon="-1.21342">
        <ele>8</ele>
        <time>2013-01-06T08:44:54Z</time>
      </trkpt>
      <trkpt lat="45.78964" lon="-1.21347">
        <ele>8</ele>
        <time>2013-01-06T08:45:01Z</time>
      </trkpt>
      <trkpt lat="45.78958" lon="-1.21371">
        <ele>8</ele>
        <time>2013-01-06T08:45:07Z</time>
      </trkpt>
      <trkpt lat="45.78941" lon="-1.21399">
        <ele>8</ele>
        <time>2013-01-06T08:45:12Z</time>
      </trkpt>
      <trkpt lat="45.7892" lon="-1.21438">
        <ele>9</ele>
        <time>2013-01-06T08:45:22Z</time>
      </trkpt>
      <trkpt lat="45.78921" lon="-1.21464">
        <ele>9</ele>
        <time>2013-01-06T08:45:31Z</time>
      </trkpt>
      <trkpt lat="45.78919" lon="-1.21489">
        <ele>9</ele>
        <time>2013-01-06T08:45:37Z</time>
      </trkpt>
      <trkpt lat="45.7892" lon="-1.21499">
        <ele>9</ele>
        <time>2013-01-06T08:45:43Z</time>
      </trkpt>
      <trkpt lat="45.78917" lon="-1.21541">
        <ele>8</ele>
        <time>2013-01-06T08:45:51Z</time>
      </trkpt>
      <trkpt lat="45.78904" lon="-1.21577">
        <ele>8</ele>
        <time>2013-01-06T08:46:02Z</time>
      </trkpt>
      <trkpt lat="45.78908" lon="-1.21609">
        <ele>8</ele>
        <time>2013-01-06T08:46:10Z</time>
      </trkpt>
      <trkpt lat="45.7891" lon="-1.21622">
        <ele>8</ele>
        <time>2013-01-06T08:46:18Z</time>
      </trkpt>
      <trkpt lat="45.78903" lon="-1.2165">
        <ele>8</ele>
        <time>2013-01-06T08:46:23Z</time>
      </trkpt>
      <trkpt lat="45.78894" lon="-1.21698">
        <ele>9</ele>
        <time>2013-01-06T08:46:30Z</time>
      </trkpt>
      <trkpt lat="45.78878" lon="-1.21726">
        <ele>9</ele>
        <time>2013-01-06T08:46:38Z</time>
      </trkpt>
      <trkpt lat="45.78864" lon="-1.21756">
        <ele>10</ele>
        <time>2013-01-06T08:46:47Z</time>
      </trkpt>
      <trkpt lat="45.78862" lon="-1.21772">
        <ele>10</ele>
        <time>2013-01-06T08:46:55Z</time>
      </trkpt>
      <trkpt lat="45.78853" lon="-1.21783">
        <ele>10</ele>
        <time>2013-01-06T08:47:04Z</time>
      </trkpt>
      <trkpt lat="45.78841" lon="-1.21799">
        <ele>10</ele>
        <time>2013-01-06T08:47:08Z</time>
      </trkpt>
      <trkpt lat="45.78828" lon="-1.21827">
        <ele>10</ele>
        <time>2013-01-06T08:47:17Z</time>
      </trkpt>
      <trkpt lat="45.78813" lon="-1.21848">
        <ele>9</ele>
        <time>2013-01-06T08:47:23Z</time>
      </trkpt>
      <trkpt lat="45.78805" lon="-1.21871">
        <ele>9</ele>
        <time>2013-01-06T08:47:32Z</time>
      </trkpt>
      <trkpt lat="45.78798" lon="-1.21874">
        <ele>9</ele>
        <time>2013-01-06T08:47:43Z</time>
      </trkpt>
      <trkpt lat="45.78779" lon="-1.21905">
        <ele>8</ele>
        <time>2013-01-06T08:47:51Z</time>
      </trkpt>
      <trkpt lat="45.78766" lon="-1.21918">
        <ele>8</ele>
        <time>2013-01-06T08:48:01Z</time>
      </trkpt>
      <trkpt lat="45.78746" lon="-1.21949">
        <ele>8</ele>
        <time>2013-01-06T08:48:10Z</time>
      </trkpt>
      <trkpt lat="45.78731" lon="-1.21985">
        <ele>7</ele>
        <time>2013-01-06T08:48:21Z</time>
      </trkpt>
      <trkpt lat="45.78717" lon="-1.2201">
        <ele>7</ele>
        <time>2013-01-06T08:48:31Z</time>
      </trkpt>
      <trkpt lat="45.78697" lon="-1.22039">
        <ele>8</ele>
        <time>2013-01-06T08:48:41Z</time>
      </trkpt>
      <trkpt lat="45.78684" lon="-1.22061">
        <ele>8</ele>
        <time>2013-01-06T08:48:50Z</time>
      </trkpt>
      <trkpt lat="45.78671" lon="-1.22077">
        <ele>9</ele>
        <time>2013-01-06T08:48:59Z</time>
      </trkpt>
      <trkpt lat="45.78675" lon="-1.22089">
        <ele>8</ele>
        <time>2013-01-06T08:49:04Z</time>
      </trkpt>
      <trkpt lat="45.7867" lon="-1.22119">
        <ele>8</ele>
        <time>2013-01-06T08:49:12Z</time>
      </trkpt>
      <trkpt lat="45.78659" lon="-1.22143">
        <ele>9</ele>
        <time>2013-01-06T08:49:20Z</time>
      </trkpt>
      <trkpt lat="45.78644" lon="-1.2217">
        <ele>9</ele>
        <time>2013-01-06T08:49:26Z</time>
      </trkpt>
      <trkpt lat="45.78629" lon="-1.22184">
        <ele>9</ele>
        <time>2013-01-06T08:49:34Z</time>
      </trkpt>
      <trkpt lat="45.78608" lon="-1.2218">
        <ele>9</ele>
        <time>2013-01-06T08:49:46Z</time>
      </trkpt>
      <trkpt lat="45.78611" lon="-1.22227">
        <ele>9</ele>
        <time>2013-01-06T08:50:02Z</time>
      </trkpt>
      <trkpt lat="45.78594" lon="-1.22241">
        <ele>10</ele>
        <time>2013-01-06T08:50:15Z</time>
      </trkpt>
      <trkpt lat="45.78585" lon="-1.22259">
        <ele>9</ele>
        <time>2013-01-06T08:50:22Z</time>
      </trkpt>
      <trkpt lat="45.7858" lon="-1.22303">
        <ele>10</ele>
        <time>2013-01-06T08:50:35Z</time>
      </trkpt>
      <trkpt lat="45.78554" lon="-1.22357">
        <ele>11</ele>
        <time>2013-01-06T08:50:45Z</time>
      </trkpt>
      <trkpt lat="45.78534" lon="-1.22397">
        <ele>13</ele>
        <time>2013-01-06T08:50:51Z</time>
      </trkpt>
      <trkpt lat="45.78519" lon="-1.2242">
        <ele>15</ele>
        <time>2013-01-06T08:51:02Z</time>
      </trkpt>
      <trkpt lat="45.78486" lon="-1.22484">
        <ele>14</ele>
        <time>2013-01-06T08:51:11Z</time>
      </trkpt>
      <trkpt lat="45.78463" lon="-1.22525">
        <ele>12</ele>
        <time>2013-01-06T08:51:19Z</time>
      </trkpt>
      <trkpt lat="45.78466" lon="-1.22538">
        <ele>12</ele>
        <time>2013-01-06T08:51:29Z</time>
      </trkpt>
      <trkpt lat="45.78453" lon="-1.22563">
        <ele>12</ele>
        <time>2013-01-06T08:51:34Z</time>
      </trkpt>
      <trkpt lat="45.78435" lon="-1.22593">
        <ele>10</ele>
        <time>2013-01-06T08:51:41Z</time>
      </trkpt>
      <trkpt lat="45.78414" lon="-1.2261">
        <ele>10</ele>
        <time>2013-01-06T08:51:48Z</time>
      </trkpt>
      <trkpt lat="45.78387" lon="-1.22632">
        <ele>10</ele>
        <time>2013-01-06T08:51:56Z</time>
      </trkpt>
      <trkpt lat="45.78368" lon="-1.22653">
        <ele>10</ele>
        <time>2013-01-06T08:52:04Z</time>
      </trkpt>
      <trkpt lat="45.7834" lon="-1.22691">
        <ele>9</ele>
        <time>2013-01-06T08:52:13Z</time>
      </trkpt>
      <trkpt lat="45.78316" lon="-1.22724">
        <ele>9</ele>
        <time>2013-01-06T08:52:18Z</time>
      </trkpt>
      <trkpt lat="45.78288" lon="-1.22744">
        <ele>9</ele>
        <time>2013-01-06T08:52:26Z</time>
      </trkpt>
      <trkpt lat="45.7826" lon="-1.22755">
        <ele>9</ele>
        <time>2013-01-06T08:52:33Z</time>
      </trkpt>
      <trkpt lat="45.7823" lon="-1.22757">
        <ele>9</ele>
        <time>2013-01-06T08:52:42Z</time>
      </trkpt>
      <trkpt lat="45.78216" lon="-1.22766">
        <ele>9</ele>
        <time>2013-01-06T08:52:50Z</time>
      </trkpt>
      <trkpt lat="45.78199" lon="-1.22799">
        <ele>8</ele>
        <time>2013-01-06T08:52:57Z</time>
      </trkpt>
      <trkpt lat="45.78181" lon="-1.22784">
        <ele>8</ele>
        <time>2013-01-06T08:53:05Z</time>
      </trkpt>
      <trkpt lat="45.78154" lon="-1.22794">
        <ele>8</ele>
        <time>2013-01-06T08:53:15Z</time>
      </trkpt>
      <trkpt lat="45.78133" lon="-1.22809">
        <ele>8</ele>
        <time>2013-01-06T08:53:25Z</time>
      </trkpt>
      <trkpt lat="45.78112" lon="-1.22814">
        <ele>8</ele>
        <time>2013-01-06T08:53:34Z</time>
      </trkpt>
      <trkpt lat="45.78088" lon="-1.22809">
        <ele>8</ele>
        <time>2013-01-06T08:53:40Z</time>
      </trkpt>
      <trkpt lat="45.78055" lon="-1.22785">
        <ele>9</ele>
        <time>2013-01-06T08:53:48Z</time>
      </trkpt>
      <trkpt lat="45.78021" lon="-1.22794">
        <ele>9</ele>
        <time>2013-01-06T08:53:58Z</time>
      </trkpt>
      <trkpt lat="45.77986" lon="-1.22794">
        <ele>8</ele>
        <time>2013-01-06T08:54:04Z</time>
      </trkpt>
      <trkpt lat="45.77962" lon="-1.22791">
        <ele>8</ele>
        <time>2013-01-06T08:54:15Z</time>
      </trkpt>
      <trkpt lat="45.77933" lon="-1.22787">
        <ele>8</ele>
        <time>2013-01-06T08:54:20Z</time>
      </trkpt>
      <trkpt lat="45.7791" lon="-1.22811">
        <ele>7</ele>
        <time>2013-01-06T08:54:28Z</time>
      </trkpt>
      <trkpt lat="45.77891" lon="-1.22802">
        <ele>8</ele>
        <time>2013-01-06T08:54:35Z</time>
      </trkpt>
      <trkpt lat="45.77856" lon="-1.22806">
        <ele>8</ele>
        <time>2013-01-06T08:54:42Z</time>
      </trkpt>
      <trkpt lat="45.77844" lon="-1.22787">
        <ele>8</ele>
        <time>2013-01-06T08:54:47Z</time>
      </trkpt>
      <trkpt lat="45.77824" lon="-1.2276">
        <ele>9</ele>
        <time>2013-01-06T08:54:54Z</time>
      </trkpt>
      <trkpt lat="45.77802" lon="-1.22763">
        <ele>9</ele>
        <time>2013-01-06T08:55:03Z</time>
      </trkpt>
      <trkpt lat="45.7779" lon="-1.22754">
        <ele>9</ele>
        <time>2013-01-06T08:55:14Z</time>
      </trkpt>
      <trkpt lat="45.77784" lon="-1.22733">
        <ele>9</ele>
        <time>2013-01-06T08:55:23Z</time>
      </trkpt>
      <trkpt lat="45.77777" lon="-1.22716">
        <ele>9</ele>
        <time>2013-01-06T08:55:32Z</time>
      </trkpt>
      <trkpt lat="45.77779" lon="-1.22677">
        <ele>9</ele>
        <time>2013-01-06T08:55:38Z</time>
      </trkpt>
      <trkpt lat="45.77775" lon="-1.22624">
        <ele>9</ele>
        <time>2013-01-06T08:55:44Z</time>
      </trkpt>
      <trkpt lat="45.77787" lon="-1.22578">
        <ele>8</ele>
        <time>2013-01-06T08:55:51Z</time>
      </trkpt>
      <trkpt lat="45.77793" lon="-1.22526">
        <ele>8</ele>
        <time>2013-01-06T08:55:59Z</time>
      </trkpt>
      <trkpt lat="45.77798" lon="-1.22512">
        <ele>8</ele>
        <time>2013-01-06T08:56:06Z</time>
      </trkpt>
      <trkpt lat="45.77809" lon="-1.22498">
        <ele>8</ele>
        <time>2013-01-06T08:56:17Z</time>
      </trkpt>
      <trkpt lat="45.77793" lon="-1.22466">
        <ele>8</ele>
        <time>2013-01-06T08:56:26Z</time>
      </trkpt>
      <trkpt lat="45.77791" lon="-1.22427">
        <ele>7</ele>
        <time>2013-01-06T08:56:35Z</time>
      </trkpt>
      <trkpt lat="45.77779" lon="-1.22406">
        <ele>8</ele>
        <time>2013-01-06T08:56:46Z</time>
      </trkpt>
      <trkpt lat="45.77769" lon="-1.22366">
        <ele>8</ele>
        <time>2013-01-06T08:56:56Z</time>
      </trkpt>
      <trkpt lat="45.77774" lon="-1.22354">
        <ele>8</ele>
        <time>2013-01-06T08:57:01Z</time>
      </trkpt>
      <trkpt lat="45.77789" lon="-1.22372">
        <ele>8</ele>
        <time>2013-01-06T08:57:09Z</time>
      </trkpt>
      <trkpt lat="45.7782" lon="-1.22399">
        <ele>8</ele>
        <time>2013-01-06T08:57:19Z</time>
      </trkpt>
      <trkpt lat="45.7782" lon="-1.22445">
        <ele>8</ele>
        <time>2013-01-06T08:57:25Z</time>
      </trkpt>
      <trkpt lat="45.77826" lon="-1.2245">
        <ele>8</ele>
        <time>2013-01-06T08:57:34Z</time>
      </trkpt>
      <trkpt lat="45.77845" lon="-1.2246">
        <ele>8</ele>
        <time>2013-01-06T08:57:40Z</time>
      </trkpt>
      <trkpt lat="45.77873" lon="-1.22477">
        <ele>8</ele>
        <time>2013-01-06T08:57:49Z</time>
      </trkpt>
      <trkpt lat="45.77885" lon="-1.22463">
        <ele>8</ele>
        <time>2013-01-06T08:57:54Z</time>
      </trkpt>
      <trkpt lat="45.77893" lon="-1.22426">
        <ele>8</ele>
        <time>2013-01-06T08:58:05Z</time>
      </trkpt>
      <trkpt lat="45.77906" lon="-1.22416">
        <ele>9</ele>
        <time>2013-01-06T08:58:13Z</time>
      </trkpt>
      <trkpt lat="45.77933" lon="-1.22409">
        <ele>10</ele>
        <time>2013-01-06T08:58:22Z</time>
      </trkpt>
      <trkpt lat="45.77951" lon="-1.22394">
        <ele>10</ele>
        <time>2013-01-06T08:58:27Z</time>
      </trkpt>
      <trkpt lat="45.77978" lon="-1.2236">
        <ele>11</ele>
        <time>2013-01-06T08:58:41Z</time>
      </trkpt>
      <trkpt lat="45.77989" lon="-1.22349">
        <ele>11</ele>
        <time>2013-01-06T08:58:51Z</time>
      </trkpt>
      <trkpt lat="45.77993" lon="-1.22331">
        <ele>11</ele>
        <time>2013-01-06T08:59:01Z</time>
      </trkpt>
      <trkpt lat="45.77998" lon="-1.22332">
        <ele>12</ele>
        <time>2013-01-06T08:59:10Z</time>
      </trkpt>
      <trkpt lat="45.78018" lon="-1.22351">
        <ele>11</ele>
        <time>2013-01-06T08:59:19Z</time>
      </trkpt>
      <trkpt lat="45.78032" lon="-1.22323">
        <ele>11</ele>
        <time>2013-01-06T08:59:26Z</time>
      </trkpt>
      <trkpt lat="45.78052" lon="-1.22296">
        <ele>11</ele>
        <time>2013-01-06T08:59:39Z</time>
      </trkpt>
      <trkpt lat="45.78064" lon="-1.22274">
        <ele>11</ele>
        <time>2013-01-06T08:59:49Z</time>
      </trkpt>
      <trkpt lat="45.78089" lon="-1.22267">
        <ele>12</ele>
        <time>2013-01-06T08:59:58Z</time>
      </trkpt>
      <trkpt lat="45.78107" lon="-1.22253">
        <ele>12</ele>
        <time>2013-01-06T09:00:07Z</time>
      </trkpt>
      <trkpt lat="45.78107" lon="-1.22194">
        <ele>12</ele>
        <time>2013-01-06T09:00:16Z</time>
      </trkpt>
      <trkpt lat="45.78124" lon="-1.22187">
        <ele>12</ele>
        <time>2013-01-06T09:00:28Z</time>
      </trkpt>
      <trkpt lat="45.78137" lon="-1.22162">
        <ele>13</ele>
        <time>2013-01-06T09:00:37Z</time>
      </trkpt>
      <trkpt lat="45.78129" lon="-1.22143">
        <ele>13</ele>
        <time>2013-01-06T09:00:44Z</time>
      </trkpt>
      <trkpt lat="45.78144" lon="-1.22144">
        <ele>13</ele>
        <time>2013-01-06T09:00:48Z</time>
      </trkpt>
      <trkpt lat="45.78167" lon="-1.22142">
        <ele>13</ele>
        <time>2013-01-06T09:00:54Z</time>
      </trkpt>
      <trkpt lat="45.78178" lon="-1.22143">
        <ele>13</ele>
        <time>2013-01-06T09:00:58Z</time>
      </trkpt>
      <trkpt lat="45.7818" lon="-1.22142">
        <ele>13</ele>
        <time>2013-01-06T09:01:04Z</time>
      </trkpt>
      <trkpt lat="45.78182" lon="-1.2214">
        <ele>13</ele>
        <time>2013-01-06T09:01:13Z</time>
      </trkpt>
      <trkpt lat="45.78182" lon="-1.22121">
        <ele>13</ele>
        <time>2013-01-06T09:01:18Z</time>
      </trkpt>
      <trkpt lat="45.78177" lon="-1.22102">
        <ele>14</ele>
        <time>2013-01-06T09:01:27Z</time>
      </trkpt>
      <trkpt lat="45.78166" lon="-1.22071">
        <ele>14</ele>
        <time>2013-01-06T09:01:35Z</time>
      </trkpt>
      <trkpt lat="45.78163" lon="-1.22037">
        <ele>13</ele>
        <time>2013-01-06T09:01:44Z</time>
      </trkpt>
      <trkpt lat="45.78172" lon="-1.22018">
        <ele>12</ele>
        <time>2013-01-06T09:01:53Z</time>
      </trkpt>
      <trkpt lat="45.78205" lon="-1.21985">
        <ele>10</ele>
        <time>2013-01-06T09:02:00Z</time>
      </trkpt>
      <trkpt lat="45.78205" lon="-1.21951">
        <ele>10</ele>
        <time>2013-01-06T09:02:05Z</time>
      </trkpt>
      <trkpt lat="45.78186" lon="-1.21925">
        <ele>10</ele>
        <time>2013-01-06T09:02:10Z</time>
      </trkpt>
      <trkpt lat="45.78194" lon="-1.21895">
        <ele>9</ele>
        <time>2013-01-06T09:02:20Z</time>
      </trkpt>
      <trkpt lat="45.78213" lon="-1.219">
        <ele>8</ele>
        <time>2013-01-06T09:02:25Z</time>
      </trkpt>
      <trkpt lat="45.78224" lon="-1.21927">
        <ele>9</ele>
        <time>2013-01-06T09:02:31Z</time>
      </trkpt>
      <trkpt lat="45.78243" lon="-1.21929">
        <ele>9</ele>
        <time>2013-01-06T09:02:40Z</time>
      </trkpt>
      <trkpt lat="45.78277" lon="-1.21967">
        <ele>9</ele>
        <time>2013-01-06T09:02:46Z</time>
      </trkpt>
      <trkpt lat="45.78284" lon="-1.21987">
        <ele>9</ele>
        <time>2013-01-06T09:02:54Z</time>
      </trkpt>
      <trkpt lat="45.78301" lon="-1.22011">
        <ele>10</ele>
        <time>2013-01-06T09:03:01Z</time>
      </trkpt>
      <trkpt lat="45.78321" lon="-1.22002">
        <ele>10</ele>
        <time>2013-01-06T09:03:06Z</time>
      </trkpt>
      <trkpt lat="45.78326" lon="-1.2197">
        <ele>9</ele>
        <time>2013-01-06T09:03:15Z</time>
      </trkpt>
      <trkpt lat="45.78322" lon="-1.21927">
        <ele>10</ele>
        <time>2013-01-06T09:03:21Z</time>
      </trkpt>
      <trkpt lat="45.78315" lon="-1.21897">
        <ele>9</ele>
        <time>2013-01-06T09:03:26Z</time>
      </trkpt>
      <trkpt lat="45.78292" lon="-1.21887">
        <ele>8</ele>
        <time>2013-01-06T09:03:34Z</time>
      </trkpt>
      <trkpt lat="45.78282" lon="-1.21862">
        <ele>8</ele>
        <time>2013-01-06T09:03:43Z</time>
      </trkpt>
      <trkpt lat="45.78273" lon="-1.21843">
        <ele>8</ele>
        <time>2013-01-06T09:03:52Z</time>
      </trkpt>
      <trkpt lat="45.78255" lon="-1.2183">
        <ele>7</ele>
        <time>2013-01-06T09:04:02Z</time>
      </trkpt>
      <trkpt lat="45.78239" lon="-1.21792">
        <ele>7</ele>
        <time>2013-01-06T09:04:12Z</time>
      </trkpt>
      <trkpt lat="45.78229" lon="-1.21822">
        <ele>7</ele>
        <time>2013-01-06T09:04:18Z</time>
      </trkpt>
      <trkpt lat="45.7822" lon="-1.21842">
        <ele>8</ele>
        <time>2013-01-06T09:04:24Z</time>
      </trkpt>
      <trkpt lat="45.7819" lon="-1.21857">
        <ele>8</ele>
        <time>2013-01-06T09:04:29Z</time>
      </trkpt>
      <trkpt lat="45.78177" lon="-1.21832">
        <ele>8</ele>
        <time>2013-01-06T09:04:38Z</time>
      </trkpt>
      <trkpt lat="45.7816" lon="-1.21822">
        <ele>8</ele>
        <time>2013-01-06T09:04:46Z</time>
      </trkpt>
      <trkpt lat="45.78147" lon="-1.21829">
        <ele>8</ele>
        <time>2013-01-06T09:04:54Z</time>
      </trkpt>
      <trkpt lat="45.78143" lon="-1.2185">
        <ele>9</ele>
        <time>2013-01-06T09:05:02Z</time>
      </trkpt>
      <trkpt lat="45.78122" lon="-1.2185">
        <ele>10</ele>
        <time>2013-01-06T09:05:09Z</time>
      </trkpt>
      <trkpt lat="45.78106" lon="-1.21849">
        <ele>10</ele>
        <time>2013-01-06T09:05:16Z</time>
      </trkpt>
      <trkpt lat="45.78081" lon="-1.21832">
        <ele>10</ele>
        <time>2013-01-06T09:05:22Z</time>
      </trkpt>
      <trkpt lat="45.78058" lon="-1.21854">
        <ele>11</ele>
        <time>2013-01-06T09:05:34Z</time>
      </trkpt>
      <trkpt lat="45.78046" lon="-1.21877">
        <ele>12</ele>
        <time>2013-01-06T09:05:40Z</time>
      </trkpt>
      <trkpt lat="45.78033" lon="-1.21888">
        <ele>12</ele>
        <time>2013-01-06T09:05:49Z</time>
      </trkpt>
      <trkpt lat="45.78019" lon="-1.21878">
        <ele>12</ele>
        <time>2013-01-06T09:05:56Z</time>
      </trkpt>
      <trkpt lat="45.7799" lon="-1.21856">
        <ele>12</ele>
        <time>2013-01-06T09:06:08Z</time>
      </trkpt>
      <trkpt lat="45.77969" lon="-1.21874">
        <ele>13</ele>
        <time>2013-01-06T09:06:17Z</time>
      </trkpt>
      <trkpt lat="45.77964" lon="-1.21899">
        <ele>13</ele>
        <time>2013-01-06T09:06:26Z</time>
      </trkpt>
      <trkpt lat="45.77957" lon="-1.21897">
        <ele>13</ele>
        <time>2013-01-06T09:06:40Z</time>
      </trkpt>
      <trkpt lat="45.77934" lon="-1.21871">
        <ele>13</ele>
        <time>2013-01-06T09:06:55Z</time>
      </trkpt>
      <trkpt lat="45.77915" lon="-1.21828">
        <ele>14</ele>
        <time>2013-01-06T09:07:09Z</time>
      </trkpt>
      <trkpt lat="45.77896" lon="-1.21795">
        <ele>12</ele>
        <time>2013-01-06T09:07:21Z</time>
      </trkpt>
      <trkpt lat="45.77853" lon="-1.21803">
        <ele>12</ele>
        <time>2013-01-06T09:07:35Z</time>
      </trkpt>
      <trkpt lat="45.77801" lon="-1.21807">
        <ele>11</ele>
        <time>2013-01-06T09:07:43Z</time>
      </trkpt>
      <trkpt lat="45.77752" lon="-1.21811">
        <ele>11</ele>
        <time>2013-01-06T09:07:57Z</time>
      </trkpt>
      <trkpt lat="45.77708" lon="-1.21815">
        <ele>13</ele>
        <time>2013-01-06T09:08:09Z</time>
      </trkpt>
      <trkpt lat="45.77653" lon="-1.21817">
        <ele>17</ele>
        <time>2013-01-06T09:08:23Z</time>
      </trkpt>
      <trkpt lat="45.77617" lon="-1.21824">
        <ele>19</ele>
        <time>2013-01-06T09:08:36Z</time>
      </trkpt>
      <trkpt lat="45.7758" lon="-1.21827">
        <ele>24</ele>
        <time>2013-01-06T09:08:46Z</time>
      </trkpt>
      <trkpt lat="45.77558" lon="-1.2183">
        <ele>25</ele>
        <time>2013-01-06T09:09:02Z</time>
      </trkpt>
      <trkpt lat="45.77531" lon="-1.21832">
        <ele>27</ele>
        <time>2013-01-06T09:09:17Z</time>
      </trkpt>
      <trkpt lat="45.77506" lon="-1.21832">
        <ele>31</ele>
        <time>2013-01-06T09:09:30Z</time>
      </trkpt>
      <trkpt lat="45.77487" lon="-1.21831">
        <ele>33</ele>
        <time>2013-01-06T09:09:41Z</time>
      </trkpt>
      <trkpt lat="45.77451" lon="-1.21818">
        <ele>34</ele>
        <time>2013-01-06T09:09:48Z</time>
      </trkpt>
      <trkpt lat="45.77426" lon="-1.21796">
        <ele>35</ele>
        <time>2013-01-06T09:09:55Z</time>
      </trkpt>
      <trkpt lat="45.77406" lon="-1.21772">
        <ele>36</ele>
        <time>2013-01-06T09:10:06Z</time>
      </trkpt>
      <trkpt lat="45.77377" lon="-1.21756">
        <ele>36</ele>
        <time>2013-01-06T09:10:20Z</time>
      </trkpt>
      <trkpt lat="45.77347" lon="-1.21766">
        <ele>35</ele>
        <time>2013-01-06T09:10:28Z</time>
      </trkpt>
      <trkpt lat="45.77327" lon="-1.21758">
        <ele>34</ele>
        <time>2013-01-06T09:11:35Z</time>
      </trkpt>
      <trkpt lat="45.77315" lon="-1.21759">
        <ele>33</ele>
        <time>2013-01-06T09:11:49Z</time>
      </trkpt>
      <trkpt lat="45.77314" lon="-1.21762">
        <ele>33</ele>
        <time>2013-01-06T09:12:48Z</time>
      </trkpt>
      <trkpt lat="45.77312" lon="-1.21763">
        <ele>32</ele>
        <time>2013-01-06T09:13:52Z</time>
      </trkpt>
      <trkpt lat="45.77318" lon="-1.2176">
        <ele>33</ele>
        <time>2013-01-06T09:14:13Z</time>
      </trkpt>
      <trkpt lat="45.77319" lon="-1.21761">
        <ele>33</ele>
        <time>2013-01-06T09:14:17Z</time>
      </trkpt>
      <trkpt lat="45.77313" lon="-1.21755">
        <ele>33</ele>
        <time>2013-01-06T09:14:25Z</time>
      </trkpt>
      <trkpt lat="45.7731" lon="-1.21759">
        <ele>33</ele>
        <time>2013-01-06T09:14:31Z</time>
      </trkpt>
      <trkpt lat="45.77306" lon="-1.21762">
        <ele>32</ele>
        <time>2013-01-06T09:14:39Z</time>
      </trkpt>
      <trkpt lat="45.77303" lon="-1.21762">
        <ele>32</ele>
        <time>2013-01-06T09:14:47Z</time>
      </trkpt>
      <trkpt lat="45.77282" lon="-1.21783">
        <ele>31</ele>
        <time>2013-01-06T09:14:59Z</time>
      </trkpt>
      <trkpt lat="45.77258" lon="-1.218">
        <ele>29</ele>
        <time>2013-01-06T09:15:07Z</time>
      </trkpt>
      <trkpt lat="45.77216" lon="-1.21796">
        <ele>27</ele>
        <time>2013-01-06T09:15:16Z</time>
      </trkpt>
      <trkpt lat="45.77188" lon="-1.21781">
        <ele>28</ele>
        <time>2013-01-06T09:15:28Z</time>
      </trkpt>
      <trkpt lat="45.77147" lon="-1.21781">
        <ele>28</ele>
        <time>2013-01-06T09:15:37Z</time>
      </trkpt>
      <trkpt lat="45.77101" lon="-1.21778">
        <ele>28</ele>
        <time>2013-01-06T09:15:46Z</time>
      </trkpt>
      <trkpt lat="45.77063" lon="-1.21782">
        <ele>29</ele>
        <time>2013-01-06T09:15:51Z</time>
      </trkpt>
      <trkpt lat="45.77023" lon="-1.2177">
        <ele>29</ele>
        <time>2013-01-06T09:16:05Z</time>
      </trkpt>
      <trkpt lat="45.77013" lon="-1.21748">
        <ele>31</ele>
        <time>2013-01-06T09:16:16Z</time>
      </trkpt>
      <trkpt lat="45.76971" lon="-1.21731">
        <ele>29</ele>
        <time>2013-01-06T09:16:22Z</time>
      </trkpt>
      <trkpt lat="45.76944" lon="-1.21737">
        <ele>29</ele>
        <time>2013-01-06T09:16:34Z</time>
      </trkpt>
      <trkpt lat="45.76889" lon="-1.21782">
        <ele>24</ele>
        <time>2013-01-06T09:16:42Z</time>
      </trkpt>
      <trkpt lat="45.76835" lon="-1.21795">
        <ele>23</ele>
        <time>2013-01-06T09:16:50Z</time>
      </trkpt>
      <trkpt lat="45.76809" lon="-1.21794">
        <ele>22</ele>
        <time>2013-01-06T09:16:59Z</time>
      </trkpt>
      <trkpt lat="45.76775" lon="-1.21775">
        <ele>23</ele>
        <time>2013-01-06T09:17:07Z</time>
      </trkpt>
      <trkpt lat="45.76739" lon="-1.21753">
        <ele>22</ele>
        <time>2013-01-06T09:17:18Z</time>
      </trkpt>
      <trkpt lat="45.76692" lon="-1.21713">
        <ele>19</ele>
        <time>2013-01-06T09:17:27Z</time>
      </trkpt>
      <trkpt lat="45.76635" lon="-1.21686">
        <ele>15</ele>
        <time>2013-01-06T09:17:37Z</time>
      </trkpt>
      <trkpt lat="45.76583" lon="-1.21674">
        <ele>12</ele>
        <time>2013-01-06T09:17:46Z</time>
      </trkpt>
      <trkpt lat="45.76525" lon="-1.21693">
        <ele>13</ele>
        <time>2013-01-06T09:17:53Z</time>
      </trkpt>
      <trkpt lat="45.76499" lon="-1.21704">
        <ele>13</ele>
        <time>2013-01-06T09:18:04Z</time>
      </trkpt>
      <trkpt lat="45.76457" lon="-1.21727">
        <ele>13</ele>
        <time>2013-01-06T09:18:15Z</time>
      </trkpt>
      <trkpt lat="45.76409" lon="-1.2174">
        <ele>13</ele>
        <time>2013-01-06T09:18:28Z</time>
      </trkpt>
      <trkpt lat="45.76375" lon="-1.2175">
        <ele>13</ele>
        <time>2013-01-06T09:18:41Z</time>
      </trkpt>
      <trkpt lat="45.76328" lon="-1.21766">
        <ele>14</ele>
        <time>2013-01-06T09:18:53Z</time>
      </trkpt>
      <trkpt lat="45.76303" lon="-1.21754">
        <ele>14</ele>
        <time>2013-01-06T09:19:05Z</time>
      </trkpt>
      <trkpt lat="45.76278" lon="-1.21737">
        <ele>17</ele>
        <time>2013-01-06T09:19:15Z</time>
      </trkpt>
      <trkpt lat="45.76246" lon="-1.2173">
        <ele>17</ele>
        <time>2013-01-06T09:19:22Z</time>
      </trkpt>
      <trkpt lat="45.76204" lon="-1.2173">
        <ele>17</ele>
        <time>2013-01-06T09:19:29Z</time>
      </trkpt>
      <trkpt lat="45.76174" lon="-1.21725">
        <ele>18</ele>
        <time>2013-01-06T09:19:41Z</time>
      </trkpt>
      <trkpt lat="45.76145" lon="-1.21715">
        <ele>18</ele>
        <time>2013-01-06T09:19:52Z</time>
      </trkpt>
      <trkpt lat="45.76112" lon="-1.21711">
        <ele>17</ele>
        <time>2013-01-06T09:19:58Z</time>
      </trkpt>
      <trkpt lat="45.76086" lon="-1.2172">
        <ele>17</ele>
        <time>2013-01-06T09:20:13Z</time>
      </trkpt>
      <trkpt lat="45.76048" lon="-1.21725">
        <ele>18</ele>
        <time>2013-01-06T09:20:21Z</time>
      </trkpt>
      <trkpt lat="45.7602" lon="-1.21756">
        <ele>20</ele>
        <time>2013-01-06T09:20:30Z</time>
      </trkpt>
      <trkpt lat="45.76009" lon="-1.21769">
        <ele>21</ele>
        <time>2013-01-06T09:20:41Z</time>
      </trkpt>
      <trkpt lat="45.76021" lon="-1.21792">
        <ele>21</ele>
        <time>2013-01-06T09:20:51Z</time>
      </trkpt>
      <trkpt lat="45.76026" lon="-1.21811">
        <ele>21</ele>
        <time>2013-01-06T09:20:59Z</time>
      </trkpt>
      <trkpt lat="45.76029" lon="-1.2184">
        <ele>23</ele>
        <time>2013-01-06T09:21:07Z</time>
      </trkpt>
      <trkpt lat="45.76021" lon="-1.21864">
        <ele>24</ele>
        <time>2013-01-06T09:21:19Z</time>
      </trkpt>
      <trkpt lat="45.76008" lon="-1.21881">
        <ele>24</ele>
        <time>2013-01-06T09:21:22Z</time>
      </trkpt>
      <trkpt lat="45.76" lon="-1.21897">
        <ele>27</ele>
        <time>2013-01-06T09:21:28Z</time>
      </trkpt>
      <trkpt lat="45.75992" lon="-1.21917">
        <ele>28</ele>
        <time>2013-01-06T09:21:33Z</time>
      </trkpt>
      <trkpt lat="45.75976" lon="-1.21944">
        <ele>26</ele>
        <time>2013-01-06T09:21:37Z</time>
      </trkpt>
      <trkpt lat="45.7597" lon="-1.21954">
        <ele>25</ele>
        <time>2013-01-06T09:21:43Z</time>
      </trkpt>
      <trkpt lat="45.75958" lon="-1.21966">
        <ele>24</ele>
        <time>2013-01-06T09:21:52Z</time>
      </trkpt>
      <trkpt lat="45.75948" lon="-1.21975">
        <ele>24</ele>
        <time>2013-01-06T09:21:58Z</time>
      </trkpt>
      <trkpt lat="45.75937" lon="-1.21982">
        <ele>23</ele>
        <time>2013-01-06T09:22:06Z</time>
      </trkpt>
      <trkpt lat="45.7592" lon="-1.21984">
        <ele>22</ele>
        <time>2013-01-06T09:22:12Z</time>
      </trkpt>
      <trkpt lat="45.75885" lon="-1.21987">
        <ele>17</ele>
        <time>2013-01-06T09:22:28Z</time>
      </trkpt>
      <trkpt lat="45.75877" lon="-1.21986">
        <ele>17</ele>
        <time>2013-01-06T09:22:33Z</time>
      </trkpt>
      <trkpt lat="45.75862" lon="-1.21995">
        <ele>16</ele>
        <time>2013-01-06T09:22:45Z</time>
      </trkpt>
      <trkpt lat="45.75854" lon="-1.22003">
        <ele>16</ele>
        <time>2013-01-06T09:22:53Z</time>
      </trkpt>
      <trkpt lat="45.75828" lon="-1.22035">
        <ele>17</ele>
        <time>2013-01-06T09:23:01Z</time>
      </trkpt>
      <trkpt lat="45.75822" lon="-1.22054">
        <ele>17</ele>
        <time>2013-01-06T09:23:09Z</time>
      </trkpt>
      <trkpt lat="45.75791" lon="-1.22055">
        <ele>18</ele>
        <time>2013-01-06T09:23:14Z</time>
      </trkpt>
      <trkpt lat="45.75781" lon="-1.22052">
        <ele>19</ele>
        <time>2013-01-06T09:23:26Z</time>
      </trkpt>
      <trkpt lat="45.75776" lon="-1.22045">
        <ele>19</ele>
        <time>2013-01-06T09:23:31Z</time>
      </trkpt>
      <trkpt lat="45.75773" lon="-1.2204">
        <ele>19</ele>
        <time>2013-01-06T09:23:37Z</time>
      </trkpt>
      <trkpt lat="45.75765" lon="-1.22039">
        <ele>19</ele>
        <time>2013-01-06T09:23:43Z</time>
      </trkpt>
      <trkpt lat="45.75759" lon="-1.22041">
        <ele>19</ele>
        <time>2013-01-06T09:23:51Z</time>
      </trkpt>
      <trkpt lat="45.75758" lon="-1.2204">
        <ele>19</ele>
        <time>2013-01-06T09:23:57Z</time>
      </trkpt>
      <trkpt lat="45.75752" lon="-1.22036">
        <ele>19</ele>
        <time>2013-01-06T09:24:01Z</time>
      </trkpt>
      <trkpt lat="45.75751" lon="-1.22036">
        <ele>19</ele>
        <time>2013-01-06T09:24:08Z</time>
      </trkpt>
      <trkpt lat="45.75746" lon="-1.22035">
        <ele>22</ele>
        <time>2013-01-06T09:24:15Z</time>
      </trkpt>
      <trkpt lat="45.7574" lon="-1.22031">
        <ele>22</ele>
        <time>2013-01-06T09:24:26Z</time>
      </trkpt>
      <trkpt lat="45.75738" lon="-1.22028">
        <ele>22</ele>
        <time>2013-01-06T09:24:37Z</time>
      </trkpt>
      <trkpt lat="45.75727" lon="-1.22022">
        <ele>23</ele>
        <time>2013-01-06T09:24:48Z</time>
      </trkpt>
      <trkpt lat="45.75721" lon="-1.22021">
        <ele>23</ele>
        <time>2013-01-06T09:27:46Z</time>
      </trkpt>
      <trkpt lat="45.75702" lon="-1.22009">
        <ele>24</ele>
        <time>2013-01-06T09:28:36Z</time>
      </trkpt>
      <trkpt lat="45.75669" lon="-1.2202">
        <ele>25</ele>
        <time>2013-01-06T09:28:48Z</time>
      </trkpt>
      <trkpt lat="45.75652" lon="-1.22025">
        <ele>24</ele>
        <time>2013-01-06T09:28:52Z</time>
      </trkpt>
      <trkpt lat="45.75651" lon="-1.22024">
        <ele>24</ele>
        <time>2013-01-06T09:29:02Z</time>
      </trkpt>
      <trkpt lat="45.75652" lon="-1.22028">
        <ele>24</ele>
        <time>2013-01-06T09:29:29Z</time>
      </trkpt>
      <trkpt lat="45.75653" lon="-1.22028">
        <ele>24</ele>
        <time>2013-01-06T09:32:24Z</time>
      </trkpt>
      <trkpt lat="45.75654" lon="-1.22031">
        <ele>24</ele>
        <time>2013-01-06T09:32:46Z</time>
      </trkpt>
      <trkpt lat="45.75652" lon="-1.22028">
        <ele>24</ele>
        <time>2013-01-06T09:32:56Z</time>
      </trkpt>
      <trkpt lat="45.75653" lon="-1.22025">
        <ele>24</ele>
        <time>2013-01-06T09:33:04Z</time>
      </trkpt>
      <trkpt lat="45.75652" lon="-1.22026">
        <ele>24</ele>
        <time>2013-01-06T09:33:10Z</time>
      </trkpt>
      <trkpt lat="45.7565" lon="-1.22028">
        <ele>24</ele>
        <time>2013-01-06T09:33:18Z</time>
      </trkpt>
      <trkpt lat="45.75649" lon="-1.22029">
        <ele>24</ele>
        <time>2013-01-06T09:33:26Z</time>
      </trkpt>
      <trkpt lat="45.75649" lon="-1.22053">
        <ele>24</ele>
        <time>2013-01-06T09:33:34Z</time>
      </trkpt>
      <trkpt lat="45.7564" lon="-1.22074">
        <ele>23</ele>
        <time>2013-01-06T09:33:39Z</time>
      </trkpt>
      <trkpt lat="45.7565" lon="-1.22084">
        <ele>24</ele>
        <time>2013-01-06T09:33:46Z</time>
      </trkpt>
      <trkpt lat="45.75658" lon="-1.22085">
        <ele>25</ele>
        <time>2013-01-06T09:33:53Z</time>
      </trkpt>
      <trkpt lat="45.75666" lon="-1.22091">
        <ele>25</ele>
        <time>2013-01-06T09:34:01Z</time>
      </trkpt>
      <trkpt lat="45.75666" lon="-1.22096">
        <ele>24</ele>
        <time>2013-01-06T09:34:08Z</time>
      </trkpt>
      <trkpt lat="45.75666" lon="-1.22102">
        <ele>24</ele>
        <time>2013-01-06T09:34:16Z</time>
      </trkpt>
      <trkpt lat="45.75668" lon="-1.2211">
        <ele>25</ele>
        <time>2013-01-06T09:34:24Z</time>
      </trkpt>
      <trkpt lat="45.75668" lon="-1.2211">
        <ele>25</ele>
        <time>2013-01-06T09:34:32Z</time>
      </trkpt>
      <trkpt lat="45.75669" lon="-1.22111">
        <ele>25</ele>
        <time>2013-01-06T09:34:40Z</time>
      </trkpt>
      <trkpt lat="45.75681" lon="-1.22117">
        <ele>25</ele>
        <time>2013-01-06T09:34:51Z</time>
      </trkpt>
      <trkpt lat="45.75684" lon="-1.22134">
        <ele>25</ele>
        <time>2013-01-06T09:35:00Z</time>
      </trkpt>
      <trkpt lat="45.75698" lon="-1.2216">
        <ele>24</ele>
        <time>2013-01-06T09:35:04Z</time>
      </trkpt>
      <trkpt lat="45.7569" lon="-1.22193">
        <ele>23</ele>
        <time>2013-01-06T09:35:13Z</time>
      </trkpt>
      <trkpt lat="45.75684" lon="-1.2224">
        <ele>22</ele>
        <time>2013-01-06T09:35:18Z</time>
      </trkpt>
      <trkpt lat="45.75692" lon="-1.22279">
        <ele>20</ele>
        <time>2013-01-06T09:35:27Z</time>
      </trkpt>
      <trkpt lat="45.75695" lon="-1.22292">
        <ele>19</ele>
        <time>2013-01-06T09:35:32Z</time>
      </trkpt>
      <trkpt lat="45.75729" lon="-1.22297">
        <ele>19</ele>
        <time>2013-01-06T09:35:38Z</time>
      </trkpt>
      <trkpt lat="45.75754" lon="-1.22295">
        <ele>16</ele>
        <time>2013-01-06T09:35:44Z</time>
      </trkpt>
      <trkpt lat="45.75789" lon="-1.22274">
        <ele>16</ele>
        <time>2013-01-06T09:35:58Z</time>
      </trkpt>
      <trkpt lat="45.75796" lon="-1.22294">
        <ele>15</ele>
        <time>2013-01-06T09:36:10Z</time>
      </trkpt>
      <trkpt lat="45.75812" lon="-1.22319">
        <ele>15</ele>
        <time>2013-01-06T09:36:20Z</time>
      </trkpt>
      <trkpt lat="45.75827" lon="-1.22346">
        <ele>13</ele>
        <time>2013-01-06T09:36:30Z</time>
      </trkpt>
      <trkpt lat="45.75837" lon="-1.22415">
        <ele>13</ele>
        <time>2013-01-06T09:36:34Z</time>
      </trkpt>
      <trkpt lat="45.75853" lon="-1.22468">
        <ele>12</ele>
        <time>2013-01-06T09:36:43Z</time>
      </trkpt>
      <trkpt lat="45.75887" lon="-1.22483">
        <ele>12</ele>
        <time>2013-01-06T09:36:51Z</time>
      </trkpt>
      <trkpt lat="45.7592" lon="-1.22519">
        <ele>10</ele>
        <time>2013-01-06T09:37:01Z</time>
      </trkpt>
      <trkpt lat="45.75915" lon="-1.22543">
        <ele>10</ele>
        <time>2013-01-06T09:37:10Z</time>
      </trkpt>
      <trkpt lat="45.759" lon="-1.22571">
        <ele>10</ele>
        <time>2013-01-06T09:37:18Z</time>
      </trkpt>
      <trkpt lat="45.75887" lon="-1.22581">
        <ele>10</ele>
        <time>2013-01-06T09:37:28Z</time>
      </trkpt>
      <trkpt lat="45.75886" lon="-1.22619">
        <ele>10</ele>
        <time>2013-01-06T09:37:35Z</time>
      </trkpt>
      <trkpt lat="45.75887" lon="-1.22641">
        <ele>10</ele>
        <time>2013-01-06T09:37:44Z</time>
      </trkpt>
      <trkpt lat="45.75881" lon="-1.22651">
        <ele>10</ele>
        <time>2013-01-06T09:37:54Z</time>
      </trkpt>
      <trkpt lat="45.75886" lon="-1.22662">
        <ele>10</ele>
        <time>2013-01-06T09:38:06Z</time>
      </trkpt>
      <trkpt lat="45.75895" lon="-1.22647">
        <ele>10</ele>
        <time>2013-01-06T09:38:18Z</time>
      </trkpt>
      <trkpt lat="45.75928" lon="-1.22661">
        <ele>9</ele>
        <time>2013-01-06T09:38:28Z</time>
      </trkpt>
      <trkpt lat="45.75944" lon="-1.22692">
        <ele>9</ele>
        <time>2013-01-06T09:38:36Z</time>
      </trkpt>
      <trkpt lat="45.75957" lon="-1.2275">
        <ele>9</ele>
        <time>2013-01-06T09:38:50Z</time>
      </trkpt>
      <trkpt lat="45.75961" lon="-1.22811">
        <ele>9</ele>
        <time>2013-01-06T09:39:00Z</time>
      </trkpt>
      <trkpt lat="45.75961" lon="-1.22871">
        <ele>8</ele>
        <time>2013-01-06T09:39:10Z</time>
      </trkpt>
      <trkpt lat="45.75976" lon="-1.22892">
        <ele>8</ele>
        <time>2013-01-06T09:39:22Z</time>
      </trkpt>
      <trkpt lat="45.76032" lon="-1.2291">
        <ele>7</ele>
        <time>2013-01-06T09:39:35Z</time>
      </trkpt>
      <trkpt lat="45.76071" lon="-1.22925">
        <ele>7</ele>
        <time>2013-01-06T09:39:44Z</time>
      </trkpt>
      <trkpt lat="45.76108" lon="-1.22953">
        <ele>9</ele>
        <time>2013-01-06T09:40:00Z</time>
      </trkpt>
      <trkpt lat="45.76149" lon="-1.22959">
        <ele>10</ele>
        <time>2013-01-06T09:40:12Z</time>
      </trkpt>
      <trkpt lat="45.76181" lon="-1.22967">
        <ele>12</ele>
        <time>2013-01-06T09:40:24Z</time>
      </trkpt>
      <trkpt lat="45.762" lon="-1.22982">
        <ele>12</ele>
        <time>2013-01-06T09:40:35Z</time>
      </trkpt>
      <trkpt lat="45.76191" lon="-1.23035">
        <ele>13</ele>
        <time>2013-01-06T09:40:50Z</time>
      </trkpt>
      <trkpt lat="45.76187" lon="-1.23079">
        <ele>13</ele>
        <time>2013-01-06T09:41:06Z</time>
      </trkpt>
      <trkpt lat="45.76203" lon="-1.23139">
        <ele>12</ele>
        <time>2013-01-06T09:41:19Z</time>
      </trkpt>
      <trkpt lat="45.76219" lon="-1.23193">
        <ele>11</ele>
        <time>2013-01-06T09:41:33Z</time>
      </trkpt>
      <trkpt lat="45.76242" lon="-1.23274">
        <ele>9</ele>
        <time>2013-01-06T09:41:42Z</time>
      </trkpt>
      <trkpt lat="45.7626" lon="-1.23387">
        <ele>7</ele>
        <time>2013-01-06T09:41:50Z</time>
      </trkpt>
      <trkpt lat="45.76274" lon="-1.23475">
        <ele>7</ele>
        <time>2013-01-06T09:42:02Z</time>
      </trkpt>
      <trkpt lat="45.76291" lon="-1.23565">
        <ele>8</ele>
        <time>2013-01-06T09:42:09Z</time>
      </trkpt>
      <trkpt lat="45.76295" lon="-1.23621">
        <ele>8</ele>
        <time>2013-01-06T09:42:19Z</time>
      </trkpt>
      <trkpt lat="45.76311" lon="-1.23659">
        <ele>7</ele>
        <time>2013-01-06T09:42:30Z</time>
      </trkpt>
      <trkpt lat="45.76343" lon="-1.2369">
        <ele>8</ele>
        <time>2013-01-06T09:42:36Z</time>
      </trkpt>
      <trkpt lat="45.76352" lon="-1.23694">
        <ele>8</ele>
        <time>2013-01-06T09:42:46Z</time>
      </trkpt>
      <trkpt lat="45.76383" lon="-1.23687">
        <ele>8</ele>
        <time>2013-01-06T09:42:54Z</time>
      </trkpt>
      <trkpt lat="45.76419" lon="-1.23676">
        <ele>8</ele>
        <time>2013-01-06T09:42:57Z</time>
      </trkpt>
      <trkpt lat="45.76437" lon="-1.23671">
        <ele>8</ele>
        <time>2013-01-06T09:43:06Z</time>
      </trkpt>
      <trkpt lat="45.76466" lon="-1.23651">
        <ele>7</ele>
        <time>2013-01-06T09:43:11Z</time>
      </trkpt>
      <trkpt lat="45.76488" lon="-1.23658">
        <ele>8</ele>
        <time>2013-01-06T09:43:19Z</time>
      </trkpt>
      <trkpt lat="45.76496" lon="-1.23657">
        <ele>8</ele>
        <time>2013-01-06T09:43:27Z</time>
      </trkpt>
      <trkpt lat="45.76526" lon="-1.23646">
        <ele>9</ele>
        <time>2013-01-06T09:43:36Z</time>
      </trkpt>
      <trkpt lat="45.76545" lon="-1.23639">
        <ele>9</ele>
        <time>2013-01-06T09:43:44Z</time>
      </trkpt>
      <trkpt lat="45.76575" lon="-1.23632">
        <ele>9</ele>
        <time>2013-01-06T09:43:53Z</time>
      </trkpt>
      <trkpt lat="45.76604" lon="-1.23627">
        <ele>10</ele>
        <time>2013-01-06T09:44:01Z</time>
      </trkpt>
      <trkpt lat="45.76633" lon="-1.23623">
        <ele>10</ele>
        <time>2013-01-06T09:44:11Z</time>
      </trkpt>
      <trkpt lat="45.76665" lon="-1.23612">
        <ele>10</ele>
        <time>2013-01-06T09:44:19Z</time>
      </trkpt>
      <trkpt lat="45.76693" lon="-1.23603">
        <ele>9</ele>
        <time>2013-01-06T09:44:29Z</time>
      </trkpt>
      <trkpt lat="45.76716" lon="-1.2361">
        <ele>9</ele>
        <time>2013-01-06T09:44:39Z</time>
      </trkpt>
      <trkpt lat="45.76735" lon="-1.23623">
        <ele>9</ele>
        <time>2013-01-06T09:44:48Z</time>
      </trkpt>
      <trkpt lat="45.76758" lon="-1.23638">
        <ele>9</ele>
        <time>2013-01-06T09:44:57Z</time>
      </trkpt>
      <trkpt lat="45.76786" lon="-1.23642">
        <ele>9</ele>
        <time>2013-01-06T09:45:08Z</time>
      </trkpt>
      <trkpt lat="45.76821" lon="-1.23645">
        <ele>9</ele>
        <time>2013-01-06T09:45:17Z</time>
      </trkpt>
      <trkpt lat="45.76855" lon="-1.2365">
        <ele>9</ele>
        <time>2013-01-06T09:45:25Z</time>
      </trkpt>
      <trkpt lat="45.76885" lon="-1.23646">
        <ele>8</ele>
        <time>2013-01-06T09:45:32Z</time>
      </trkpt>
      <trkpt lat="45.76923" lon="-1.23654">
        <ele>9</ele>
        <time>2013-01-06T09:45:43Z</time>
      </trkpt>
      <trkpt lat="45.76953" lon="-1.23657">
        <ele>9</ele>
        <time>2013-01-06T09:45:52Z</time>
      </trkpt>
      <trkpt lat="45.76976" lon="-1.23667">
        <ele>9</ele>
        <time>2013-01-06T09:46:06Z</time>
      </trkpt>
      <trkpt lat="45.77001" lon="-1.23669">
        <ele>10</ele>
        <time>2013-01-06T09:46:16Z</time>
      </trkpt>
      <trkpt lat="45.77042" lon="-1.23678">
        <ele>10</ele>
        <time>2013-01-06T09:46:25Z</time>
      </trkpt>
      <trkpt lat="45.77065" lon="-1.23679">
        <ele>10</ele>
        <time>2013-01-06T09:46:36Z</time>
      </trkpt>
      <trkpt lat="45.77108" lon="-1.23683">
        <ele>10</ele>
        <time>2013-01-06T09:46:47Z</time>
      </trkpt>
      <trkpt lat="45.77136" lon="-1.23685">
        <ele>10</ele>
        <time>2013-01-06T09:46:57Z</time>
      </trkpt>
      <trkpt lat="45.77167" lon="-1.23691">
        <ele>9</ele>
        <time>2013-01-06T09:47:07Z</time>
      </trkpt>
      <trkpt lat="45.7721" lon="-1.23686">
        <ele>9</ele>
        <time>2013-01-06T09:47:15Z</time>
      </trkpt>
      <trkpt lat="45.77251" lon="-1.23695">
        <ele>10</ele>
        <time>2013-01-06T09:47:25Z</time>
      </trkpt>
      <trkpt lat="45.77285" lon="-1.23708">
        <ele>10</ele>
        <time>2013-01-06T09:47:33Z</time>
      </trkpt>
      <trkpt lat="45.77322" lon="-1.2372">
        <ele>10</ele>
        <time>2013-01-06T09:47:46Z</time>
      </trkpt>
      <trkpt lat="45.77352" lon="-1.23726">
        <ele>9</ele>
        <time>2013-01-06T09:47:58Z</time>
      </trkpt>
      <trkpt lat="45.7739" lon="-1.23725">
        <ele>9</ele>
        <time>2013-01-06T09:48:10Z</time>
      </trkpt>
      <trkpt lat="45.77418" lon="-1.23717">
        <ele>9</ele>
        <time>2013-01-06T09:48:17Z</time>
      </trkpt>
      <trkpt lat="45.77443" lon="-1.23656">
        <ele>8</ele>
        <time>2013-01-06T09:48:24Z</time>
      </trkpt>
      <trkpt lat="45.77456" lon="-1.23618">
        <ele>8</ele>
        <time>2013-01-06T09:48:33Z</time>
      </trkpt>
      <trkpt lat="45.77471" lon="-1.23578">
        <ele>7</ele>
        <time>2013-01-06T09:48:48Z</time>
      </trkpt>
      <trkpt lat="45.77489" lon="-1.23541">
        <ele>7</ele>
        <time>2013-01-06T09:49:02Z</time>
      </trkpt>
      <trkpt lat="45.77507" lon="-1.23518">
        <ele>6</ele>
        <time>2013-01-06T09:49:16Z</time>
      </trkpt>
      <trkpt lat="45.77547" lon="-1.23514">
        <ele>6</ele>
        <time>2013-01-06T09:49:29Z</time>
      </trkpt>
      <trkpt lat="45.77606" lon="-1.2351">
        <ele>6</ele>
        <time>2013-01-06T09:49:36Z</time>
      </trkpt>
      <trkpt lat="45.7766" lon="-1.23505">
        <ele>7</ele>
        <time>2013-01-06T09:49:42Z</time>
      </trkpt>
      <trkpt lat="45.77727" lon="-1.23501">
        <ele>6</ele>
        <time>2013-01-06T09:49:53Z</time>
      </trkpt>
      <trkpt lat="45.77789" lon="-1.23498">
        <ele>6</ele>
        <time>2013-01-06T09:50:05Z</time>
      </trkpt>
      <trkpt lat="45.77815" lon="-1.23484">
        <ele>6</ele>
        <time>2013-01-06T09:50:56Z</time>
      </trkpt>
      <trkpt lat="45.77817" lon="-1.23465">
        <ele>7</ele>
        <time>2013-01-06T09:51:07Z</time>
      </trkpt>
      <trkpt lat="45.77837" lon="-1.23481">
        <ele>6</ele>
        <time>2013-01-06T09:51:19Z</time>
      </trkpt>
      <trkpt lat="45.77864" lon="-1.23493">
        <ele>6</ele>
        <time>2013-01-06T09:51:35Z</time>
      </trkpt>
      <trkpt lat="45.77868" lon="-1.23496">
        <ele>6</ele>
        <time>2013-01-06T09:51:50Z</time>
      </trkpt>
      <trkpt lat="45.77903" lon="-1.2349">
        <ele>5</ele>
        <time>2013-01-06T09:52:05Z</time>
      </trkpt>
      <trkpt lat="45.77945" lon="-1.23489">
        <ele>5</ele>
        <time>2013-01-06T09:52:19Z</time>
      </trkpt>
      <trkpt lat="45.78002" lon="-1.23486">
        <ele>5</ele>
        <time>2013-01-06T09:52:31Z</time>
      </trkpt>
      <trkpt lat="45.7806" lon="-1.23483">
        <ele>6</ele>
        <time>2013-01-06T09:52:44Z</time>
      </trkpt>
      <trkpt lat="45.78113" lon="-1.23477">
        <ele>6</ele>
        <time>2013-01-06T09:52:51Z</time>
      </trkpt>
      <trkpt lat="45.78177" lon="-1.23474">
        <ele>7</ele>
        <time>2013-01-06T09:53:01Z</time>
      </trkpt>
      <trkpt lat="45.78216" lon="-1.23472">
        <ele>8</ele>
        <time>2013-01-06T09:53:13Z</time>
      </trkpt>
      <trkpt lat="45.78266" lon="-1.2347">
        <ele>10</ele>
        <time>2013-01-06T09:53:24Z</time>
      </trkpt>
      <trkpt lat="45.78294" lon="-1.23467">
        <ele>9</ele>
        <time>2013-01-06T09:53:35Z</time>
      </trkpt>
      <trkpt lat="45.78331" lon="-1.23445">
        <ele>9</ele>
        <time>2013-01-06T09:53:44Z</time>
      </trkpt>
      <trkpt lat="45.7837" lon="-1.23414">
        <ele>9</ele>
        <time>2013-01-06T09:53:55Z</time>
      </trkpt>
      <trkpt lat="45.78409" lon="-1.23385">
        <ele>10</ele>
        <time>2013-01-06T09:54:05Z</time>
      </trkpt>
      <trkpt lat="45.78445" lon="-1.23362">
        <ele>10</ele>
        <time>2013-01-06T09:54:13Z</time>
      </trkpt>
      <trkpt lat="45.78472" lon="-1.23337">
        <ele>11</ele>
        <time>2013-01-06T09:54:18Z</time>
      </trkpt>
      <trkpt lat="45.78522" lon="-1.23306">
        <ele>11</ele>
        <time>2013-01-06T09:54:26Z</time>
      </trkpt>
      <trkpt lat="45.78555" lon="-1.23279">
        <ele>11</ele>
        <time>2013-01-06T09:54:36Z</time>
      </trkpt>
      <trkpt lat="45.78587" lon="-1.23258">
        <ele>12</ele>
        <time>2013-01-06T09:54:47Z</time>
      </trkpt>
      <trkpt lat="45.78602" lon="-1.23245">
        <ele>11</ele>
        <time>2013-01-06T09:55:00Z</time>
      </trkpt>
      <trkpt lat="45.78621" lon="-1.23221">
        <ele>11</ele>
        <time>2013-01-06T09:55:15Z</time>
      </trkpt>
      <trkpt lat="45.78639" lon="-1.23168">
        <ele>11</ele>
        <time>2013-01-06T09:55:27Z</time>
      </trkpt>
      <trkpt lat="45.78652" lon="-1.23084">
        <ele>9</ele>
        <time>2013-01-06T09:55:38Z</time>
      </trkpt>
      <trkpt lat="45.78661" lon="-1.23003">
        <ele>8</ele>
        <time>2013-01-06T09:55:51Z</time>
      </trkpt>
      <trkpt lat="45.7867" lon="-1.22904">
        <ele>6</ele>
        <time>2013-01-06T09:56:05Z</time>
      </trkpt>
      <trkpt lat="45.78677" lon="-1.22851">
        <ele>7</ele>
        <time>2013-01-06T09:56:18Z</time>
      </trkpt>
      <trkpt lat="45.7868" lon="-1.22801">
        <ele>7</ele>
        <time>2013-01-06T09:56:33Z</time>
      </trkpt>
      <trkpt lat="45.78682" lon="-1.22752">
        <ele>7</ele>
        <time>2013-01-06T09:56:45Z</time>
      </trkpt>
      <trkpt lat="45.78687" lon="-1.22701">
        <ele>9</ele>
        <time>2013-01-06T09:56:57Z</time>
      </trkpt>
      <trkpt lat="45.78694" lon="-1.22648">
        <ele>12</ele>
        <time>2013-01-06T09:57:07Z</time>
      </trkpt>
      <trkpt lat="45.78699" lon="-1.22594">
        <ele>13</ele>
        <time>2013-01-06T09:57:14Z</time>
      </trkpt>
      <trkpt lat="45.78703" lon="-1.22555">
        <ele>15</ele>
        <time>2013-01-06T09:57:19Z</time>
      </trkpt>
      <trkpt lat="45.78717" lon="-1.22539">
        <ele>15</ele>
        <time>2013-01-06T09:57:27Z</time>
      </trkpt>
      <trkpt lat="45.78722" lon="-1.22545">
        <ele>15</ele>
        <time>2013-01-06T09:57:44Z</time>
      </trkpt>
      <trkpt lat="45.78727" lon="-1.22571">
        <ele>15</ele>
        <time>2013-01-06T09:57:49Z</time>
      </trkpt>
      <trkpt lat="45.78732" lon="-1.22576">
        <ele>15</ele>
        <time>2013-01-06T09:57:59Z</time>
      </trkpt>
      <trkpt lat="45.78732" lon="-1.22576">
        <ele>15</ele>
        <time>2013-01-06T09:58:08Z</time>
      </trkpt>
      <trkpt lat="45.78732" lon="-1.22568">
        <ele>15</ele>
        <time>2013-01-06T09:58:15Z</time>
      </trkpt>
      <trkpt lat="45.78735" lon="-1.22571">
        <ele>15</ele>
        <time>2013-01-06T09:58:26Z</time>
      </trkpt>
      <trkpt lat="45.7875" lon="-1.22586">
        <ele>14</ele>
        <time>2013-01-06T09:58:33Z</time>
      </trkpt>
      <trkpt lat="45.78759" lon="-1.22604">
        <ele>12</ele>
        <time>2013-01-06T09:58:43Z</time>
      </trkpt>
      <trkpt lat="45.78773" lon="-1.22601">
        <ele>12</ele>
        <time>2013-01-06T09:58:50Z</time>
      </trkpt>
      <trkpt lat="45.78805" lon="-1.22602">
        <ele>12</ele>
        <time>2013-01-06T09:58:57Z</time>
      </trkpt>
      <trkpt lat="45.78818" lon="-1.22594">
        <ele>11</ele>
        <time>2013-01-06T09:59:13Z</time>
      </trkpt>
      <trkpt lat="45.78824" lon="-1.2258">
        <ele>12</ele>
        <time>2013-01-06T09:59:35Z</time>
      </trkpt>
      <trkpt lat="45.78825" lon="-1.22566">
        <ele>13</ele>
        <time>2013-01-06T09:59:44Z</time>
      </trkpt>
      <trkpt lat="45.78825" lon="-1.22552">
        <ele>13</ele>
        <time>2013-01-06T09:59:53Z</time>
      </trkpt>
      <trkpt lat="45.78827" lon="-1.22546">
        <ele>13</ele>
        <time>2013-01-06T10:00:05Z</time>
      </trkpt>
      <trkpt lat="45.78828" lon="-1.2254">
        <ele>14</ele>
        <time>2013-01-06T10:00:12Z</time>
      </trkpt>
      <trkpt lat="45.78823" lon="-1.22525">
        <ele>14</ele>
        <time>2013-01-06T10:00:34Z</time>
      </trkpt>
      <trkpt lat="45.78825" lon="-1.22511">
        <ele>15</ele>
        <time>2013-01-06T10:00:39Z</time>
      </trkpt>
      <trkpt lat="45.78817" lon="-1.22494">
        <ele>14</ele>
        <time>2013-01-06T10:00:47Z</time>
      </trkpt>
      <trkpt lat="45.78817" lon="-1.2249">
        <ele>14</ele>
        <time>2013-01-06T10:00:51Z</time>
      </trkpt>
      <trkpt lat="45.78811" lon="-1.22482">
        <ele>14</ele>
        <time>2013-01-06T10:01:02Z</time>
      </trkpt>
      <trkpt lat="45.78809" lon="-1.2248">
        <ele>14</ele>
        <time>2013-01-06T10:01:15Z</time>
      </trkpt>
      <trkpt lat="45.78809" lon="-1.22482">
        <ele>14</ele>
        <time>2013-01-06T10:01:28Z</time>
      </trkpt>
      <trkpt lat="45.78808" lon="-1.22481">
        <ele>14</ele>
        <time>2013-01-06T10:01:35Z</time>
      </trkpt>
      <trkpt lat="45.78787" lon="-1.22489">
        <ele>14</ele>
        <time>2013-01-06T10:01:47Z</time>
      </trkpt>
      <trkpt lat="45.78759" lon="-1.22499">
        <ele>15</ele>
        <time>2013-01-06T10:01:57Z</time>
      </trkpt>
      <trkpt lat="45.78723" lon="-1.22499">
        <ele>15</ele>
        <time>2013-01-06T10:02:09Z</time>
      </trkpt>
      <trkpt lat="45.78697" lon="-1.22492">
        <ele>15</ele>
        <time>2013-01-06T10:02:19Z</time>
      </trkpt>
      <trkpt lat="45.78648" lon="-1.22478">
        <ele>15</ele>
        <time>2013-01-06T10:02:24Z</time>
      </trkpt>
      <trkpt lat="45.78617" lon="-1.2247">
        <ele>15</ele>
        <time>2013-01-06T10:02:41Z</time>
      </trkpt>
      <trkpt lat="45.78581" lon="-1.22461">
        <ele>14</ele>
        <time>2013-01-06T10:02:48Z</time>
      </trkpt>
      <trkpt lat="45.78548" lon="-1.22443">
        <ele>14</ele>
        <time>2013-01-06T10:02:56Z</time>
      </trkpt>
      <trkpt lat="45.78536" lon="-1.22436">
        <ele>14</ele>
        <time>2013-01-06T10:03:01Z</time>
      </trkpt>
      <trkpt lat="45.7853" lon="-1.22435">
        <ele>14</ele>
        <time>2013-01-06T10:03:10Z</time>
      </trkpt>
      <trkpt lat="45.78531" lon="-1.22423">
        <ele>14</ele>
        <time>2013-01-06T10:03:16Z</time>
      </trkpt>
      <trkpt lat="45.78533" lon="-1.22413">
        <ele>13</ele>
        <time>2013-01-06T10:03:19Z</time>
      </trkpt>
      <trkpt lat="45.78542" lon="-1.22397">
        <ele>12</ele>
        <time>2013-01-06T10:03:26Z</time>
      </trkpt>
      <trkpt lat="45.78563" lon="-1.22349">
        <ele>11</ele>
        <time>2013-01-06T10:03:34Z</time>
      </trkpt>
      <trkpt lat="45.78587" lon="-1.22318">
        <ele>8</ele>
        <time>2013-01-06T10:03:42Z</time>
      </trkpt>
      <trkpt lat="45.78593" lon="-1.22309">
        <ele>8</ele>
        <time>2013-01-06T10:03:50Z</time>
      </trkpt>
      <trkpt lat="45.78599" lon="-1.22293">
        <ele>8</ele>
        <time>2013-01-06T10:03:57Z</time>
      </trkpt>
      <trkpt lat="45.78614" lon="-1.22271">
        <ele>9</ele>
        <time>2013-01-06T10:04:04Z</time>
      </trkpt>
      <trkpt lat="45.78622" lon="-1.22242">
        <ele>9</ele>
        <time>2013-01-06T10:04:15Z</time>
      </trkpt>
      <trkpt lat="45.78637" lon="-1.22212">
        <ele>9</ele>
        <time>2013-01-06T10:04:19Z</time>
      </trkpt>
      <trkpt lat="45.78657" lon="-1.22193">
        <ele>9</ele>
        <time>2013-01-06T10:04:30Z</time>
      </trkpt>
      <trkpt lat="45.78669" lon="-1.22166">
        <ele>9</ele>
        <time>2013-01-06T10:04:41Z</time>
      </trkpt>
      <trkpt lat="45.78689" lon="-1.22122">
        <ele>8</ele>
        <time>2013-01-06T10:04:53Z</time>
      </trkpt>
      <trkpt lat="45.78703" lon="-1.22115">
        <ele>8</ele>
        <time>2013-01-06T10:04:59Z</time>
      </trkpt>
      <trkpt lat="45.78708" lon="-1.22088">
        <ele>8</ele>
        <time>2013-01-06T10:05:06Z</time>
      </trkpt>
      <trkpt lat="45.78725" lon="-1.22058">
        <ele>7</ele>
        <time>2013-01-06T10:05:16Z</time>
      </trkpt>
      <trkpt lat="45.78744" lon="-1.22017">
        <ele>7</ele>
        <time>2013-01-06T10:05:25Z</time>
      </trkpt>
      <trkpt lat="45.78757" lon="-1.22005">
        <ele>7</ele>
        <time>2013-01-06T10:05:34Z</time>
      </trkpt>
      <trkpt lat="45.78773" lon="-1.21985">
        <ele>7</ele>
        <time>2013-01-06T10:05:39Z</time>
      </trkpt>
      <trkpt lat="45.78787" lon="-1.21942">
        <ele>8</ele>
        <time>2013-01-06T10:05:50Z</time>
      </trkpt>
      <trkpt lat="45.78809" lon="-1.21924">
        <ele>8</ele>
        <time>2013-01-06T10:05:59Z</time>
      </trkpt>
      <trkpt lat="45.78822" lon="-1.21892">
        <ele>9</ele>
        <time>2013-01-06T10:06:07Z</time>
      </trkpt>
      <trkpt lat="45.78829" lon="-1.21884">
        <ele>9</ele>
        <time>2013-01-06T10:06:13Z</time>
      </trkpt>
      <trkpt lat="45.7884" lon="-1.21856">
        <ele>9</ele>
        <time>2013-01-06T10:06:21Z</time>
      </trkpt>
      <trkpt lat="45.78849" lon="-1.21836">
        <ele>10</ele>
        <time>2013-01-06T10:06:32Z</time>
      </trkpt>
      <trkpt lat="45.78876" lon="-1.21819">
        <ele>10</ele>
        <time>2013-01-06T10:06:42Z</time>
      </trkpt>
      <trkpt lat="45.78886" lon="-1.21797">
        <ele>10</ele>
        <time>2013-01-06T10:06:49Z</time>
      </trkpt>
      <trkpt lat="45.78903" lon="-1.21783">
        <ele>10</ele>
        <time>2013-01-06T10:06:57Z</time>
      </trkpt>
      <trkpt lat="45.78917" lon="-1.21745">
        <ele>10</ele>
        <time>2013-01-06T10:07:02Z</time>
      </trkpt>
      <trkpt lat="45.78925" lon="-1.217">
        <ele>9</ele>
        <time>2013-01-06T10:07:11Z</time>
      </trkpt>
      <trkpt lat="45.78937" lon="-1.21675">
        <ele>8</ele>
        <time>2013-01-06T10:07:19Z</time>
      </trkpt>
      <trkpt lat="45.78952" lon="-1.21637">
        <ele>8</ele>
        <time>2013-01-06T10:07:28Z</time>
      </trkpt>
      <trkpt lat="45.78969" lon="-1.21618">
        <ele>8</ele>
        <time>2013-01-06T10:07:38Z</time>
      </trkpt>
      <trkpt lat="45.78983" lon="-1.21583">
        <ele>8</ele>
        <time>2013-01-06T10:07:48Z</time>
      </trkpt>
      <trkpt lat="45.78989" lon="-1.21549">
        <ele>8</ele>
        <time>2013-01-06T10:07:56Z</time>
      </trkpt>
      <trkpt lat="45.7899" lon="-1.21502">
        <ele>8</ele>
        <time>2013-01-06T10:08:06Z</time>
      </trkpt>
      <trkpt lat="45.78988" lon="-1.21464">
        <ele>8</ele>
        <time>2013-01-06T10:08:13Z</time>
      </trkpt>
      <trkpt lat="45.78995" lon="-1.21433">
        <ele>8</ele>
        <time>2013-01-06T10:08:32Z</time>
      </trkpt>
      <trkpt lat="45.78998" lon="-1.21408">
        <ele>7</ele>
        <time>2013-01-06T10:08:40Z</time>
      </trkpt>
      <trkpt lat="45.79008" lon="-1.21363">
        <ele>7</ele>
        <time>2013-01-06T10:08:49Z</time>
      </trkpt>
      <trkpt lat="45.79006" lon="-1.21358">
        <ele>7</ele>
        <time>2013-01-06T10:09:05Z</time>
      </trkpt>
      <trkpt lat="45.79009" lon="-1.21353">
        <ele>7</ele>
        <time>2013-01-06T10:09:13Z</time>
      </trkpt>
      <trkpt lat="45.7901" lon="-1.21351">
        <ele>7</ele>
        <time>2013-01-06T10:09:17Z</time>
      </trkpt>
      <trkpt lat="45.79013" lon="-1.21346">
        <ele>7</ele>
        <time>2013-01-06T10:09:20Z</time>
      </trkpt>
      <trkpt lat="45.79014" lon="-1.21345">
        <ele>7</ele>
        <time>2013-01-06T10:09:25Z</time>
      </trkpt>
      <trkpt lat="45.79009" lon="-1.21341">
        <ele>8</ele>
        <time>2013-01-06T10:09:31Z</time>
      </trkpt>
      <trkpt lat="45.79009" lon="-1.21341">
        <ele>8</ele>
        <time>2013-01-06T10:09:45Z</time>
      </trkpt>
      <trkpt lat="45.79013" lon="-1.21338">
        <ele>7</ele>
        <time>2013-01-06T10:09:51Z</time>
      </trkpt>
      <trkpt lat="45.79014" lon="-1.21337">
        <ele>7</ele>
        <time>2013-01-06T10:10:01Z</time>
      </trkpt>
      <trkpt lat="45.79018" lon="-1.21339">
        <ele>7</ele>
        <time>2013-01-06T10:10:07Z</time>
      </trkpt>
      <trkpt lat="45.79021" lon="-1.21306">
        <ele>8</ele>
        <time>2013-01-06T10:10:16Z</time>
      </trkpt>
      <trkpt lat="45.79027" lon="-1.21285">
        <ele>8</ele>
        <time>2013-01-06T10:10:22Z</time>
      </trkpt>
      <trkpt lat="45.79028" lon="-1.21241">
        <ele>9</ele>
        <time>2013-01-06T10:10:35Z</time>
      </trkpt>
      <trkpt lat="45.79032" lon="-1.21201">
        <ele>9</ele>
        <time>2013-01-06T10:10:42Z</time>
      </trkpt>
      <trkpt lat="45.79042" lon="-1.21153">
        <ele>8</ele>
        <time>2013-01-06T10:10:51Z</time>
      </trkpt>
      <trkpt lat="45.79052" lon="-1.21145">
        <ele>8</ele>
        <time>2013-01-06T10:11:01Z</time>
      </trkpt>
      <trkpt lat="45.79079" lon="-1.21127">
        <ele>8</ele>
        <time>2013-01-06T10:11:12Z</time>
      </trkpt>
      <trkpt lat="45.79084" lon="-1.21107">
        <ele>6</ele>
        <time>2013-01-06T10:11:22Z</time>
      </trkpt>
      <trkpt lat="45.79099" lon="-1.21095">
        <ele>6</ele>
        <time>2013-01-06T10:11:30Z</time>
      </trkpt>
      <trkpt lat="45.79111" lon="-1.21054">
        <ele>7</ele>
        <time>2013-01-06T10:11:38Z</time>
      </trkpt>
      <trkpt lat="45.79122" lon="-1.21024">
        <ele>8</ele>
        <time>2013-01-06T10:11:42Z</time>
      </trkpt>
      <trkpt lat="45.79148" lon="-1.20999">
        <ele>9</ele>
        <time>2013-01-06T10:12:01Z</time>
      </trkpt>
      <trkpt lat="45.79153" lon="-1.20972">
        <ele>9</ele>
        <time>2013-01-06T10:12:07Z</time>
      </trkpt>
      <trkpt lat="45.79163" lon="-1.20945">
        <ele>10</ele>
        <time>2013-01-06T10:12:13Z</time>
      </trkpt>
      <trkpt lat="45.79165" lon="-1.20939">
        <ele>10</ele>
        <time>2013-01-06T10:12:24Z</time>
      </trkpt>
      <trkpt lat="45.79171" lon="-1.20931">
        <ele>9</ele>
        <time>2013-01-06T10:12:28Z</time>
      </trkpt>
      <trkpt lat="45.79172" lon="-1.20903">
        <ele>9</ele>
        <time>2013-01-06T10:12:35Z</time>
      </trkpt>
      <trkpt lat="45.79171" lon="-1.20875">
        <ele>8</ele>
        <time>2013-01-06T10:12:47Z</time>
      </trkpt>
      <trkpt lat="45.79162" lon="-1.20835">
        <ele>9</ele>
        <time>2013-01-06T10:12:51Z</time>
      </trkpt>
      <trkpt lat="45.79163" lon="-1.20826">
        <ele>9</ele>
        <time>2013-01-06T10:12:56Z</time>
      </trkpt>
      <trkpt lat="45.79157" lon="-1.20838">
        <ele>9</ele>
        <time>2013-01-06T10:13:05Z</time>
      </trkpt>
      <trkpt lat="45.79159" lon="-1.20824">
        <ele>9</ele>
        <time>2013-01-06T10:13:11Z</time>
      </trkpt>
      <trkpt lat="45.79161" lon="-1.20821">
        <ele>10</ele>
        <time>2013-01-06T10:13:17Z</time>
      </trkpt>
      <trkpt lat="45.79156" lon="-1.20806">
        <ele>10</ele>
        <time>2013-01-06T10:13:24Z</time>
      </trkpt>
      <trkpt lat="45.79168" lon="-1.20769">
        <ele>9</ele>
        <time>2013-01-06T10:13:32Z</time>
      </trkpt>
      <trkpt lat="45.7917" lon="-1.20764">
        <ele>9</ele>
        <time>2013-01-06T10:13:42Z</time>
      </trkpt>
      <trkpt lat="45.79176" lon="-1.20761">
        <ele>9</ele>
        <time>2013-01-06T10:13:52Z</time>
      </trkpt>
      <trkpt lat="45.79176" lon="-1.20755">
        <ele>9</ele>
        <time>2013-01-06T10:13:57Z</time>
      </trkpt>
      <trkpt lat="45.79173" lon="-1.20726">
        <ele>9</ele>
        <time>2013-01-06T10:14:03Z</time>
      </trkpt>
      <trkpt lat="45.79172" lon="-1.20696">
        <ele>9</ele>
        <time>2013-01-06T10:14:09Z</time>
      </trkpt>
      <trkpt lat="45.79177" lon="-1.20651">
        <ele>10</ele>
        <time>2013-01-06T10:14:16Z</time>
      </trkpt>
      <trkpt lat="45.79181" lon="-1.20627">
        <ele>9</ele>
        <time>2013-01-06T10:14:25Z</time>
      </trkpt>
      <trkpt lat="45.792" lon="-1.20612">
        <ele>9</ele>
        <time>2013-01-06T10:14:33Z</time>
      </trkpt>
      <trkpt lat="45.79211" lon="-1.20603">
        <ele>9</ele>
        <time>2013-01-06T10:14:41Z</time>
      </trkpt>
      <trkpt lat="45.79211" lon="-1.20575">
        <ele>9</ele>
        <time>2013-01-06T10:14:46Z</time>
      </trkpt>
      <trkpt lat="45.7921" lon="-1.20536">
        <ele>9</ele>
        <time>2013-01-06T10:14:51Z</time>
      </trkpt>
      <trkpt lat="45.79204" lon="-1.20503">
        <ele>9</ele>
        <time>2013-01-06T10:15:02Z</time>
      </trkpt>
      <trkpt lat="45.79191" lon="-1.20476">
        <ele>9</ele>
        <time>2013-01-06T10:15:09Z</time>
      </trkpt>
      <trkpt lat="45.79189" lon="-1.20461">
        <ele>9</ele>
        <time>2013-01-06T10:15:18Z</time>
      </trkpt>
      <trkpt lat="45.79185" lon="-1.20445">
        <ele>9</ele>
        <time>2013-01-06T10:15:24Z</time>
      </trkpt>
      <trkpt lat="45.7919" lon="-1.20404">
        <ele>8</ele>
        <time>2013-01-06T10:15:34Z</time>
      </trkpt>
      <trkpt lat="45.79192" lon="-1.20374">
        <ele>7</ele>
        <time>2013-01-06T10:15:44Z</time>
      </trkpt>
      <trkpt lat="45.79189" lon="-1.2034">
        <ele>7</ele>
        <time>2013-01-06T10:15:54Z</time>
      </trkpt>
      <trkpt lat="45.79181" lon="-1.20326">
        <ele>7</ele>
        <time>2013-01-06T10:16:01Z</time>
      </trkpt>
      <trkpt lat="45.79154" lon="-1.20302">
        <ele>8</ele>
        <time>2013-01-06T10:16:10Z</time>
      </trkpt>
      <trkpt lat="45.79126" lon="-1.20269">
        <ele>9</ele>
        <time>2013-01-06T10:16:23Z</time>
      </trkpt>
      <trkpt lat="45.79104" lon="-1.20226">
        <ele>8</ele>
        <time>2013-01-06T10:16:31Z</time>
      </trkpt>
      <trkpt lat="45.79102" lon="-1.20197">
        <ele>8</ele>
        <time>2013-01-06T10:16:39Z</time>
      </trkpt>
      <trkpt lat="45.79124" lon="-1.20188">
        <ele>7</ele>
        <time>2013-01-06T10:16:50Z</time>
      </trkpt>
      <trkpt lat="45.79115" lon="-1.20118">
        <ele>6</ele>
        <time>2013-01-06T10:16:58Z</time>
      </trkpt>
      <trkpt lat="45.79102" lon="-1.20072">
        <ele>5</ele>
        <time>2013-01-06T10:17:06Z</time>
      </trkpt>
      <trkpt lat="45.79079" lon="-1.20059">
        <ele>7</ele>
        <time>2013-01-06T10:17:16Z</time>
      </trkpt>
      <trkpt lat="45.79043" lon="-1.20042">
        <ele>7</ele>
        <time>2013-01-06T10:17:27Z</time>
      </trkpt>
      <trkpt lat="45.79011" lon="-1.20048">
        <ele>8</ele>
        <time>2013-01-06T10:17:36Z</time>
      </trkpt>
      <trkpt lat="45.78995" lon="-1.20032">
        <ele>11</ele>
        <time>2013-01-06T10:17:46Z</time>
      </trkpt>
      <trkpt lat="45.78978" lon="-1.19982">
        <ele>9</ele>
        <time>2013-01-06T10:17:52Z</time>
      </trkpt>
      <trkpt lat="45.78964" lon="-1.19941">
        <ele>10</ele>
        <time>2013-01-06T10:18:04Z</time>
      </trkpt>
      <trkpt lat="45.78961" lon="-1.19908">
        <ele>8</ele>
        <time>2013-01-06T10:18:16Z</time>
      </trkpt>
      <trkpt lat="45.78945" lon="-1.19865">
        <ele>9</ele>
        <time>2013-01-06T10:18:26Z</time>
      </trkpt>
      <trkpt lat="45.78943" lon="-1.19836">
        <ele>9</ele>
        <time>2013-01-06T10:18:34Z</time>
      </trkpt>
      <trkpt lat="45.78932" lon="-1.19791">
        <ele>8</ele>
        <time>2013-01-06T10:18:42Z</time>
      </trkpt>
      <trkpt lat="45.78932" lon="-1.19741">
        <ele>8</ele>
        <time>2013-01-06T10:18:47Z</time>
      </trkpt>
      <trkpt lat="45.78935" lon="-1.19687">
        <ele>7</ele>
        <time>2013-01-06T10:18:56Z</time>
      </trkpt>
      <trkpt lat="45.7894" lon="-1.19647">
        <ele>6</ele>
        <time>2013-01-06T10:19:08Z</time>
      </trkpt>
      <trkpt lat="45.78939" lon="-1.19619">
        <ele>6</ele>
        <time>2013-01-06T10:19:16Z</time>
      </trkpt>
      <trkpt lat="45.78933" lon="-1.19604">
        <ele>7</ele>
        <time>2013-01-06T10:19:27Z</time>
      </trkpt>
      <trkpt lat="45.78936" lon="-1.1958">
        <ele>7</ele>
        <time>2013-01-06T10:19:31Z</time>
      </trkpt>
      <trkpt lat="45.78937" lon="-1.1954">
        <ele>6</ele>
        <time>2013-01-06T10:19:42Z</time>
      </trkpt>
      <trkpt lat="45.78937" lon="-1.19509">
        <ele>7</ele>
        <time>2013-01-06T10:19:54Z</time>
      </trkpt>
      <trkpt lat="45.78938" lon="-1.1948">
        <ele>7</ele>
        <time>2013-01-06T10:20:00Z</time>
      </trkpt>
      <trkpt lat="45.78936" lon="-1.19471">
        <ele>7</ele>
        <time>2013-01-06T10:20:13Z</time>
      </trkpt>
      <trkpt lat="45.78936" lon="-1.19426">
        <ele>9</ele>
        <time>2013-01-06T10:20:27Z</time>
      </trkpt>
      <trkpt lat="45.78932" lon="-1.19386">
        <ele>9</ele>
        <time>2013-01-06T10:20:34Z</time>
      </trkpt>
      <trkpt lat="45.78931" lon="-1.19371">
        <ele>9</ele>
        <time>2013-01-06T10:20:37Z</time>
      </trkpt>
      <trkpt lat="45.7893" lon="-1.19338">
        <ele>10</ele>
        <time>2013-01-06T10:20:41Z</time>
      </trkpt>
      <trkpt lat="45.78929" lon="-1.19324">
        <ele>9</ele>
        <time>2013-01-06T10:20:53Z</time>
      </trkpt>
      <trkpt lat="45.78928" lon="-1.1932">
        <ele>9</ele>
        <time>2013-01-06T10:21:00Z</time>
      </trkpt>
      <trkpt lat="45.78928" lon="-1.19318">
        <ele>9</ele>
        <time>2013-01-06T10:21:04Z</time>
      </trkpt>
      <trkpt lat="45.78927" lon="-1.19315">
        <ele>9</ele>
        <time>2013-01-06T10:21:13Z</time>
      </trkpt>
      <trkpt lat="45.78926" lon="-1.19307">
        <ele>8</ele>
        <time>2013-01-06T10:21:27Z</time>
      </trkpt>
      <trkpt lat="45.78926" lon="-1.19278">
        <ele>8</ele>
        <time>2013-01-06T10:21:35Z</time>
      </trkpt>
      <trkpt lat="45.78922" lon="-1.19254">
        <ele>9</ele>
        <time>2013-01-06T10:21:41Z</time>
      </trkpt>
      <trkpt lat="45.78913" lon="-1.19211">
        <ele>10</ele>
        <time>2013-01-06T10:21:52Z</time>
      </trkpt>
      <trkpt lat="45.78905" lon="-1.19148">
        <ele>11</ele>
        <time>2013-01-06T10:21:58Z</time>
      </trkpt>
      <trkpt lat="45.78898" lon="-1.19101">
        <ele>11</ele>
        <time>2013-01-06T10:22:09Z</time>
      </trkpt>
      <trkpt lat="45.78906" lon="-1.19076">
        <ele>12</ele>
        <time>2013-01-06T10:22:17Z</time>
      </trkpt>
      <trkpt lat="45.7892" lon="-1.1902">
        <ele>10</ele>
        <time>2013-01-06T10:22:26Z</time>
      </trkpt>
      <trkpt lat="45.78928" lon="-1.18989">
        <ele>10</ele>
        <time>2013-01-06T10:22:36Z</time>
      </trkpt>
      <trkpt lat="45.78928" lon="-1.18939">
        <ele>10</ele>
        <time>2013-01-06T10:22:45Z</time>
      </trkpt>
      <trkpt lat="45.78945" lon="-1.18905">
        <ele>11</ele>
        <time>2013-01-06T10:22:51Z</time>
      </trkpt>
      <trkpt lat="45.78948" lon="-1.18874">
        <ele>10</ele>
        <time>2013-01-06T10:23:01Z</time>
      </trkpt>
      <trkpt lat="45.78957" lon="-1.18848">
        <ele>9</ele>
        <time>2013-01-06T10:23:08Z</time>
      </trkpt>
      <trkpt lat="45.78959" lon="-1.18838">
        <ele>9</ele>
        <time>2013-01-06T10:23:16Z</time>
      </trkpt>
      <trkpt lat="45.78961" lon="-1.1883">
        <ele>9</ele>
        <time>2013-01-06T10:23:27Z</time>
      </trkpt>
      <trkpt lat="45.78954" lon="-1.18789">
        <ele>10</ele>
        <time>2013-01-06T10:23:35Z</time>
      </trkpt>
      <trkpt lat="45.78957" lon="-1.18763">
        <ele>10</ele>
        <time>2013-01-06T10:23:42Z</time>
      </trkpt>
      <trkpt lat="45.78971" lon="-1.18733">
        <ele>11</ele>
        <time>2013-01-06T10:23:53Z</time>
      </trkpt>
      <trkpt lat="45.78985" lon="-1.18679">
        <ele>11</ele>
        <time>2013-01-06T10:23:59Z</time>
      </trkpt>
      <trkpt lat="45.78986" lon="-1.18645">
        <ele>12</ele>
        <time>2013-01-06T10:24:04Z</time>
      </trkpt>
      <trkpt lat="45.79001" lon="-1.18628">
        <ele>8</ele>
        <time>2013-01-06T10:24:15Z</time>
      </trkpt>
      <trkpt lat="45.79006" lon="-1.18582">
        <ele>9</ele>
        <time>2013-01-06T10:24:23Z</time>
      </trkpt>
      <trkpt lat="45.79008" lon="-1.18578">
        <ele>9</ele>
        <time>2013-01-06T10:24:27Z</time>
      </trkpt>
      <trkpt lat="45.7901" lon="-1.1857">
        <ele>9</ele>
        <time>2013-01-06T10:24:34Z</time>
      </trkpt>
      <trkpt lat="45.79009" lon="-1.18563">
        <ele>9</ele>
        <time>2013-01-06T10:24:45Z</time>
      </trkpt>
      <trkpt lat="45.79007" lon="-1.18559">
        <ele>9</ele>
        <time>2013-01-06T10:24:56Z</time>
      </trkpt>
      <trkpt lat="45.79008" lon="-1.18557">
        <ele>9</ele>
        <time>2013-01-06T10:25:08Z</time>
      </trkpt>
      <trkpt lat="45.79007" lon="-1.18552">
        <ele>9</ele>
        <time>2013-01-06T10:25:21Z</time>
      </trkpt>
      <trkpt lat="45.79007" lon="-1.18544">
        <ele>9</ele>
        <time>2013-01-06T10:25:30Z</time>
      </trkpt>
      <trkpt lat="45.79012" lon="-1.18529">
        <ele>10</ele>
        <time>2013-01-06T10:25:44Z</time>
      </trkpt>
      <trkpt lat="45.79014" lon="-1.1851">
        <ele>12</ele>
        <time>2013-01-06T10:25:58Z</time>
      </trkpt>
      <trkpt lat="45.79019" lon="-1.1849">
        <ele>14</ele>
        <time>2013-01-06T10:26:09Z</time>
      </trkpt>
      <trkpt lat="45.79022" lon="-1.18473">
        <ele>14</ele>
        <time>2013-01-06T10:26:14Z</time>
      </trkpt>
      <trkpt lat="45.79025" lon="-1.18446">
        <ele>15</ele>
        <time>2013-01-06T10:26:16Z</time>
      </trkpt>
      <trkpt lat="45.79028" lon="-1.18418">
        <ele>16</ele>
        <time>2013-01-06T10:26:28Z</time>
      </trkpt>
      <trkpt lat="45.79028" lon="-1.18417">
        <ele>18</ele>
        <time>2013-01-06T10:26:38Z</time>
      </trkpt>
      <trkpt lat="45.79028" lon="-1.18416">
        <ele>18</ele>
        <time>2013-01-06T10:26:50Z</time>
      </trkpt>
      <trkpt lat="45.79029" lon="-1.18412">
        <ele>18</ele>
        <time>2013-01-06T10:27:03Z</time>
      </trkpt>
      <trkpt lat="45.79034" lon="-1.18399">
        <ele>17</ele>
        <time>2013-01-06T10:27:15Z</time>
      </trkpt>
      <trkpt lat="45.79013" lon="-1.18399">
        <ele>19</ele>
        <time>2013-01-06T10:27:23Z</time>
      </trkpt>
      <trkpt lat="45.78995" lon="-1.18397">
        <ele>24</ele>
        <time>2013-01-06T10:27:28Z</time>
      </trkpt>
      <trkpt lat="45.78968" lon="-1.18399">
        <ele>25</ele>
        <time>2013-01-06T10:27:38Z</time>
      </trkpt>
      <trkpt lat="45.78955" lon="-1.18398">
        <ele>26</ele>
        <time>2013-01-06T10:27:46Z</time>
      </trkpt>
      <trkpt lat="45.78945" lon="-1.18403">
        <ele>27</ele>
        <time>2013-01-06T10:27:56Z</time>
      </trkpt>
      <trkpt lat="45.78943" lon="-1.18405">
        <ele>27</ele>
        <time>2013-01-06T10:28:06Z</time>
      </trkpt>
      <trkpt lat="45.78933" lon="-1.18406">
        <ele>28</ele>
        <time>2013-01-06T10:28:10Z</time>
      </trkpt>
      <trkpt lat="45.78928" lon="-1.18403">
        <ele>28</ele>
        <time>2013-01-06T10:28:18Z</time>
      </trkpt>
      <trkpt lat="45.7892" lon="-1.18405">
        <ele>28</ele>
        <time>2013-01-06T10:28:30Z</time>
      </trkpt>
      <trkpt lat="45.78911" lon="-1.18404">
        <ele>30</ele>
        <time>2013-01-06T10:28:37Z</time>
      </trkpt>
      <trkpt lat="45.78911" lon="-1.18403">
        <ele>30</ele>
        <time>2013-01-06T10:28:49Z</time>
      </trkpt>
      <trkpt lat="45.78897" lon="-1.184">
        <ele>30</ele>
        <time>2013-01-06T10:28:52Z</time>
      </trkpt>
      <trkpt lat="45.78889" lon="-1.18405">
        <ele>30</ele>
        <time>2013-01-06T10:28:58Z</time>
      </trkpt>
      <trkpt lat="45.78881" lon="-1.18409">
        <ele>30</ele>
        <time>2013-01-06T10:29:03Z</time>
      </trkpt>
      <trkpt lat="45.78849" lon="-1.18419">
        <ele>29</ele>
        <time>2013-01-06T10:29:10Z</time>
      </trkpt>
      <trkpt lat="45.78836" lon="-1.18421">
        <ele>29</ele>
        <time>2013-01-06T10:29:17Z</time>
      </trkpt>
      <trkpt lat="45.78805" lon="-1.1842">
        <ele>25</ele>
        <time>2013-01-06T10:29:21Z</time>
      </trkpt>
      <trkpt lat="45.78777" lon="-1.18417">
        <ele>23</ele>
        <time>2013-01-06T10:29:26Z</time>
      </trkpt>
      <trkpt lat="45.78737" lon="-1.18422">
        <ele>19</ele>
        <time>2013-01-06T10:29:37Z</time>
      </trkpt>
      <trkpt lat="45.78685" lon="-1.18429">
        <ele>14</ele>
        <time>2013-01-06T10:29:44Z</time>
      </trkpt>
      <trkpt lat="45.78665" lon="-1.18429">
        <ele>12</ele>
        <time>2013-01-06T10:29:53Z</time>
      </trkpt>
      <trkpt lat="45.78652" lon="-1.18424">
        <ele>12</ele>
        <time>2013-01-06T10:29:59Z</time>
      </trkpt>
      <trkpt lat="45.7864" lon="-1.18392">
        <ele>13</ele>
        <time>2013-01-06T10:30:10Z</time>
      </trkpt>
      <trkpt lat="45.7864" lon="-1.18342">
        <ele>13</ele>
        <time>2013-01-06T10:30:22Z</time>
      </trkpt>
      <trkpt lat="45.7865" lon="-1.18283">
        <ele>13</ele>
        <time>2013-01-06T10:30:34Z</time>
      </trkpt>
      <trkpt lat="45.78664" lon="-1.18241">
        <ele>13</ele>
        <time>2013-01-06T10:30:51Z</time>
      </trkpt>
      <trkpt lat="45.78681" lon="-1.18174">
        <ele>14</ele>
        <time>2013-01-06T10:31:13Z</time>
      </trkpt>
      <trkpt lat="45.78696" lon="-1.18122">
        <ele>15</ele>
        <time>2013-01-06T10:31:34Z</time>
      </trkpt>
      <trkpt lat="45.78716" lon="-1.18064">
        <ele>15</ele>
        <time>2013-01-06T10:32:01Z</time>
      </trkpt>
      <trkpt lat="45.78752" lon="-1.17985">
        <ele>14</ele>
        <time>2013-01-06T10:32:20Z</time>
      </trkpt>
      <trkpt lat="45.78782" lon="-1.17908">
        <ele>17</ele>
        <time>2013-01-06T10:32:42Z</time>
      </trkpt>
      <trkpt lat="45.78798" lon="-1.17843">
        <ele>18</ele>
        <time>2013-01-06T10:33:02Z</time>
      </trkpt>
      <trkpt lat="45.78828" lon="-1.17781">
        <ele>19</ele>
        <time>2013-01-06T10:33:18Z</time>
      </trkpt>
      <trkpt lat="45.7885" lon="-1.17702">
        <ele>18</ele>
        <time>2013-01-06T10:33:33Z</time>
      </trkpt>
      <trkpt lat="45.78882" lon="-1.1761">
        <ele>18</ele>
        <time>2013-01-06T10:33:50Z</time>
      </trkpt>
      <trkpt lat="45.78908" lon="-1.17518">
        <ele>18</ele>
        <time>2013-01-06T10:34:06Z</time>
      </trkpt>
      <trkpt lat="45.78938" lon="-1.17448">
        <ele>18</ele>
        <time>2013-01-06T10:34:22Z</time>
      </trkpt>
      <trkpt lat="45.78958" lon="-1.17383">
        <ele>15</ele>
        <time>2013-01-06T10:34:42Z</time>
      </trkpt>
      <trkpt lat="45.7898" lon="-1.17307">
        <ele>14</ele>
        <time>2013-01-06T10:35:01Z</time>
      </trkpt>
      <trkpt lat="45.79011" lon="-1.17219">
        <ele>15</ele>
        <time>2013-01-06T10:35:11Z</time>
      </trkpt>
      <trkpt lat="45.79049" lon="-1.1712">
        <ele>15</ele>
        <time>2013-01-06T10:35:34Z</time>
      </trkpt>
      <trkpt lat="45.7908" lon="-1.17024">
        <ele>15</ele>
        <time>2013-01-06T10:36:02Z</time>
      </trkpt>
      <trkpt lat="45.79114" lon="-1.16939">
        <ele>15</ele>
        <time>2013-01-06T10:36:27Z</time>
      </trkpt>
      <trkpt lat="45.79119" lon="-1.16918">
        <ele>15</ele>
        <time>2013-01-06T10:36:50Z</time>
      </trkpt>
      <trkpt lat="45.79157" lon="-1.16795">
        <ele>15</ele>
        <time>2013-01-06T10:37:10Z</time>
      </trkpt>
      <trkpt lat="45.79226" lon="-1.16616">
        <ele>17</ele>
        <time>2013-01-06T10:37:25Z</time>
      </trkpt>
      <trkpt lat="45.79281" lon="-1.16462">
        <ele>15</ele>
        <time>2013-01-06T10:37:51Z</time>
      </trkpt>
      <trkpt lat="45.79307" lon="-1.16307">
        <ele>14</ele>
        <time>2013-01-06T10:38:15Z</time>
      </trkpt>
      <trkpt lat="45.79281" lon="-1.16158">
        <ele>12</ele>
        <time>2013-01-06T10:38:37Z</time>
      </trkpt>
      <trkpt lat="45.79271" lon="-1.16097">
        <ele>11</ele>
        <time>2013-01-06T10:38:47Z</time>
      </trkpt>
      <trkpt lat="45.79394" lon="-1.16159">
        <ele>9</ele>
      </trkpt>
      <trkpt lat="45.79499" lon="-1.1622">
        <ele>8</ele>
      </trkpt>
      <trkpt lat="45.7957" lon="-1.1623">
        <ele>7</ele>
      </trkpt>
      <trkpt lat="45.79574" lon="-1.16234">
        <ele>7</ele>
      </trkpt>
      <trkpt lat="45.75644" lon="-1.22019">
        <ele>24.8</ele>
      </trkpt>
      <trkpt lat="45.75642" lon="-1.22029">
        <ele>24.5</ele>
      </trkpt>
      <trkpt lat="45.75634" lon="-1.22031">
        <ele>23.7</ele>
      </trkpt>
      <trkpt lat="45.75618" lon="-1.22009">
        <ele>22.7</ele>
      </trkpt>
      <trkpt lat="45.75612" lon="-1.21992">
        <ele>22.5</ele>
      </trkpt>
      <trkpt lat="45.75611" lon="-1.21969">
        <ele>22.6</ele>
      </trkpt>
      <trkpt lat="45.7561" lon="-1.21963">
        <ele>22.6</ele>
      </trkpt>
      <trkpt lat="45.75611" lon="-1.21925">
        <ele>22.9</ele>
      </trkpt>
      <trkpt lat="45.75611" lon="-1.2191">
        <ele>22.7</ele>
      </trkpt>
      <trkpt lat="45.75611" lon="-1.21897">
        <ele>22.2</ele>
      </trkpt>
      <trkpt lat="45.75576" lon="-1.21869">
        <ele>20.3</ele>
      </trkpt>
      <trkpt lat="45.75575" lon="-1.21779">
        <ele>15.4</ele>
      </trkpt>
      <trkpt lat="45.75574" lon="-1.21763">
        <ele>14.3</ele>
      </trkpt>
      <trkpt lat="45.75573" lon="-1.21708">
        <ele>15.7</ele>
      </trkpt>
      <trkpt lat="45.75754" lon="-1.21697">
        <ele>19.8</ele>
      </trkpt>
      <trkpt lat="45.75931" lon="-1.21689">
        <ele>18.8</ele>
      </trkpt>
      <trkpt lat="45.7593" lon="-1.21655">
        <ele>18.5</ele>
      </trkpt>
      <trkpt lat="45.75908" lon="-1.21609">
        <ele>21.2</ele>
      </trkpt>
      <trkpt lat="45.75889" lon="-1.21575">
        <ele>24.1</ele>
      </trkpt>
      <trkpt lat="45.75884" lon="-1.21542">
        <ele>26</ele>
      </trkpt>
      <trkpt lat="45.75884" lon="-1.21514">
        <ele>27.3</ele>
      </trkpt>
      <trkpt lat="45.75879" lon="-1.21478">
        <ele>28.7</ele>
      </trkpt>
      <trkpt lat="45.75876" lon="-1.21457">
        <ele>29.3</ele>
      </trkpt>
      <trkpt lat="45.75866" lon="-1.21285">
        <ele>34.5</ele>
      </trkpt>
      <trkpt lat="45.75864" lon="-1.21262">
        <ele>35</ele>
      </trkpt>
      <trkpt lat="45.75838" lon="-1.21187">
        <ele>36.5</ele>
      </trkpt>
      <trkpt lat="45.75807" lon="-1.21085">
        <ele>36.9</ele>
      </trkpt>
      <trkpt lat="45.75797" lon="-1.21052">
        <ele>36.5</ele>
      </trkpt>
      <trkpt lat="45.75774" lon="-1.21005">
        <ele>35.9</ele>
      </trkpt>
      <trkpt lat="45.75758" lon="-1.20936">
        <ele>30</ele>
      </trkpt>
      <trkpt lat="45.7573" lon="-1.20902">
        <ele>26.8</ele>
      </trkpt>
      <trkpt lat="45.75681" lon="-1.20867">
        <ele>24.1</ele>
      </trkpt>
      <trkpt lat="45.75667" lon="-1.20848">
        <ele>22.4</ele>
      </trkpt>
      <trkpt lat="45.75626" lon="-1.20797">
        <ele>20.2</ele>
      </trkpt>
      <trkpt lat="45.75597" lon="-1.20786">
        <ele>19.8</ele>
      </trkpt>
      <trkpt lat="45.75567" lon="-1.20782">
        <ele>20.3</ele>
      </trkpt>
      <trkpt lat="45.75552" lon="-1.20781">
        <ele>20.9</ele>
      </trkpt>
      <trkpt lat="45.75531" lon="-1.2078">
        <ele>21.8</ele>
      </trkpt>
      <trkpt lat="45.75497" lon="-1.20752">
        <ele>22.2</ele>
      </trkpt>
      <trkpt lat="45.75457" lon="-1.20745">
        <ele>23.8</ele>
      </trkpt>
      <trkpt lat="45.75368" lon="-1.20738">
        <ele>24.8</ele>
      </trkpt>
      <trkpt lat="45.75337" lon="-1.20734">
        <ele>24.4</ele>
      </trkpt>
      <trkpt lat="45.75275" lon="-1.20703">
        <ele>24.2</ele>
      </trkpt>
      <trkpt lat="45.75212" lon="-1.20681">
        <ele>21.7</ele>
      </trkpt>
      <trkpt lat="45.75187" lon="-1.20663">
        <ele>20</ele>
      </trkpt>
      <trkpt lat="45.75149" lon="-1.20633">
        <ele>18.8</ele>
      </trkpt>
      <trkpt lat="45.75113" lon="-1.20604">
        <ele>19.2</ele>
      </trkpt>
      <trkpt lat="45.75062" lon="-1.20602">
        <ele>19.9</ele>
      </trkpt>
      <trkpt lat="45.75007" lon="-1.20601">
        <ele>20.4</ele>
      </trkpt>
      <trkpt lat="45.74996" lon="-1.20601">
        <ele>20.3</ele>
      </trkpt>
      <trkpt lat="45.74886" lon="-1.20593">
        <ele>17.8</ele>
      </trkpt>
      <trkpt lat="45.74853" lon="-1.20607">
        <ele>17.6</ele>
      </trkpt>
      <trkpt lat="45.74848" lon="-1.20607">
        <ele>17.5</ele>
      </trkpt>
      <trkpt lat="45.7484" lon="-1.20608">
        <ele>17.4</ele>
      </trkpt>
      <trkpt lat="45.7483" lon="-1.20607">
        <ele>17.3</ele>
      </trkpt>
      <trkpt lat="45.7481" lon="-1.20606">
        <ele>17.7</ele>
      </trkpt>
      <trkpt lat="45.74728" lon="-1.20568">
        <ele>18</ele>
      </trkpt>
      <trkpt lat="45.74681" lon="-1.20546">
        <ele>17.6</ele>
      </trkpt>
      <trkpt lat="45.74648" lon="-1.20535">
        <ele>16.8</ele>
      </trkpt>
      <trkpt lat="45.74606" lon="-1.20535">
        <ele>15.4</ele>
      </trkpt>
      <trkpt lat="45.74603" lon="-1.20539">
        <ele>15.2</ele>
      </trkpt>
      <trkpt lat="45.74572" lon="-1.20572">
        <ele>14.3</ele>
      </trkpt>
      <trkpt lat="45.74538" lon="-1.20625">
        <ele>17.1</ele>
      </trkpt>
      <trkpt lat="45.74515" lon="-1.20638">
        <ele>18.7</ele>
      </trkpt>
      <trkpt lat="45.74485" lon="-1.20629">
        <ele>18.9</ele>
      </trkpt>
      <trkpt lat="45.74471" lon="-1.2063">
        <ele>19.1</ele>
      </trkpt>
      <trkpt lat="45.74436" lon="-1.20627">
        <ele>19.4</ele>
      </trkpt>
      <trkpt lat="45.74396" lon="-1.20625">
        <ele>19</ele>
      </trkpt>
      <trkpt lat="45.74387" lon="-1.2063">
        <ele>19</ele>
      </trkpt>
      <trkpt lat="45.74371" lon="-1.20641">
        <ele>19.2</ele>
      </trkpt>
      <trkpt lat="45.74359" lon="-1.20663">
        <ele>19.8</ele>
      </trkpt>
      <trkpt lat="45.74345" lon="-1.20685">
        <ele>20.6</ele>
      </trkpt>
      <trkpt lat="45.74327" lon="-1.20722">
        <ele>22.5</ele>
      </trkpt>
      <trkpt lat="45.74313" lon="-1.20743">
        <ele>23.9</ele>
      </trkpt>
      <trkpt lat="45.743" lon="-1.20781">
        <ele>25.1</ele>
      </trkpt>
      <trkpt lat="45.74296" lon="-1.20797">
        <ele>25.6</ele>
      </trkpt>
      <trkpt lat="45.74297" lon="-1.20816">
        <ele>26</ele>
      </trkpt>
      <trkpt lat="45.74301" lon="-1.21086">
        <ele>18.1</ele>
      </trkpt>
      <trkpt lat="45.74302" lon="-1.21131">
        <ele>16.7</ele>
      </trkpt>
      <trkpt lat="45.74294" lon="-1.21144">
        <ele>16.2</ele>
      </trkpt>
      <trkpt lat="45.74286" lon="-1.21153">
        <ele>15.8</ele>
      </trkpt>
      <trkpt lat="45.74265" lon="-1.21174">
        <ele>15.3</ele>
      </trkpt>
      <trkpt lat="45.7423" lon="-1.21192">
        <ele>14.8</ele>
      </trkpt>
      <trkpt lat="45.74198" lon="-1.21202">
        <ele>14</ele>
      </trkpt>
      <trkpt lat="45.74168" lon="-1.212">
        <ele>13.2</ele>
      </trkpt>
      <trkpt lat="45.74125" lon="-1.21192">
        <ele>12.4</ele>
      </trkpt>
      <trkpt lat="45.7409" lon="-1.21189">
        <ele>11.6</ele>
      </trkpt>
      <trkpt lat="45.74054" lon="-1.21182">
        <ele>11.7</ele>
      </trkpt>
      <trkpt lat="45.74011" lon="-1.21192">
        <ele>11.7</ele>
      </trkpt>
      <trkpt lat="45.73991" lon="-1.2119">
        <ele>12</ele>
      </trkpt>
      <trkpt lat="45.73965" lon="-1.21192">
        <ele>12.9</ele>
      </trkpt>
      <trkpt lat="45.73933" lon="-1.21203">
        <ele>14.2</ele>
      </trkpt>
      <trkpt lat="45.73933" lon="-1.21217">
        <ele>14.5</ele>
      </trkpt>
      <trkpt lat="45.73908" lon="-1.21231">
        <ele>16.1</ele>
      </trkpt>
      <trkpt lat="45.7388" lon="-1.21232">
        <ele>17.8</ele>
      </trkpt>
      <trkpt lat="45.73846" lon="-1.2122">
        <ele>19.5</ele>
      </trkpt>
      <trkpt lat="45.73817" lon="-1.21217">
        <ele>20.5</ele>
      </trkpt>
      <trkpt lat="45.73789" lon="-1.21221">
        <ele>21</ele>
      </trkpt>
      <trkpt lat="45.7377" lon="-1.21224">
        <ele>21.3</ele>
      </trkpt>
      <trkpt lat="45.73733" lon="-1.21233">
        <ele>21.4</ele>
      </trkpt>
      <trkpt lat="45.73659" lon="-1.21253">
        <ele>20.9</ele>
      </trkpt>
      <trkpt lat="45.73638" lon="-1.21258">
        <ele>20.8</ele>
      </trkpt>
      <trkpt lat="45.73591" lon="-1.2127">
        <ele>20.7</ele>
      </trkpt>
      <trkpt lat="45.73578" lon="-1.21273">
        <ele>20.6</ele>
      </trkpt>
      <trkpt lat="45.73554" lon="-1.21283">
        <ele>19.8</ele>
      </trkpt>
      <trkpt lat="45.73527" lon="-1.21301">
        <ele>19.2</ele>
      </trkpt>
      <trkpt lat="45.73475" lon="-1.2131">
        <ele>17.6</ele>
      </trkpt>
      <trkpt lat="45.73437" lon="-1.21287">
        <ele>15.8</ele>
      </trkpt>
      <trkpt lat="45.7341" lon="-1.21287">
        <ele>15.1</ele>
      </trkpt>
      <trkpt lat="45.73386" lon="-1.21289">
        <ele>15.4</ele>
      </trkpt>
      <trkpt lat="45.73314" lon="-1.21295">
        <ele>16.1</ele>
      </trkpt>
      <trkpt lat="45.73246" lon="-1.21278">
        <ele>16</ele>
      </trkpt>
      <trkpt lat="45.73229" lon="-1.21267">
        <ele>15.6</ele>
      </trkpt>
      <trkpt lat="45.73228" lon="-1.21206">
        <ele>15.4</ele>
      </trkpt>
      <trkpt lat="45.73098" lon="-1.21214">
        <ele>13.2</ele>
      </trkpt>
      <trkpt lat="45.73044" lon="-1.21218">
        <ele>16.5</ele>
      </trkpt>
      <trkpt lat="45.73041" lon="-1.21098">
        <ele>19.7</ele>
      </trkpt>
      <trkpt lat="45.73041" lon="-1.21001">
        <ele>23.5</ele>
      </trkpt>
      <trkpt lat="45.73036" lon="-1.20862">
        <ele>23.3</ele>
      </trkpt>
      <trkpt lat="45.73033" lon="-1.20712">
        <ele>17.1</ele>
      </trkpt>
      <trkpt lat="45.73031" lon="-1.20631">
        <ele>16</ele>
      </trkpt>
      <trkpt lat="45.73029" lon="-1.20579">
        <ele>15.1</ele>
      </trkpt>
      <trkpt lat="45.73203" lon="-1.20567">
        <ele>21.1</ele>
      </trkpt>
      <trkpt lat="45.73386" lon="-1.20558">
        <ele>16.8</ele>
      </trkpt>
      <trkpt lat="45.73381" lon="-1.20381">
        <ele>15.8</ele>
      </trkpt>
      <trkpt lat="45.73399" lon="-1.20376">
        <ele>15.8</ele>
      </trkpt>
      <trkpt lat="45.73399" lon="-1.20376">
        <ele>15.8</ele>
      </trkpt>
      <trkpt lat="45.73381" lon="-1.20381">
        <ele>15.8</ele>
      </trkpt>
      <trkpt lat="45.7338" lon="-1.20333">
        <ele>14.1</ele>
      </trkpt>
      <trkpt lat="45.73365" lon="-1.19915">
        <ele>29</ele>
      </trkpt>
      <trkpt lat="45.73364" lon="-1.19848">
        <ele>29.2</ele>
      </trkpt>
      <trkpt lat="45.73363" lon="-1.19814">
        <ele>28.5</ele>
      </trkpt>
      <trkpt lat="45.73378" lon="-1.19787">
        <ele>27</ele>
      </trkpt>
      <trkpt lat="45.73386" lon="-1.19777">
        <ele>26.3</ele>
      </trkpt>
      <trkpt lat="45.7339" lon="-1.19766">
        <ele>25.7</ele>
      </trkpt>
      <trkpt lat="45.73404" lon="-1.1973">
        <ele>24</ele>
      </trkpt>
      <trkpt lat="45.73417" lon="-1.19705">
        <ele>23.5</ele>
      </trkpt>
      <trkpt lat="45.73438" lon="-1.1967">
        <ele>23.5</ele>
      </trkpt>
      <trkpt lat="45.73451" lon="-1.19639">
        <ele>22.4</ele>
      </trkpt>
      <trkpt lat="45.7347" lon="-1.19587">
        <ele>20.7</ele>
      </trkpt>
      <trkpt lat="45.73508" lon="-1.19547">
        <ele>20.1</ele>
      </trkpt>
      <trkpt lat="45.7354" lon="-1.19517">
        <ele>18.6</ele>
      </trkpt>
      <trkpt lat="45.73572" lon="-1.19474">
        <ele>18.3</ele>
      </trkpt>
      <trkpt lat="45.73598" lon="-1.19484">
        <ele>18</ele>
      </trkpt>
      <trkpt lat="45.73623" lon="-1.19498">
        <ele>17.5</ele>
      </trkpt>
      <trkpt lat="45.73647" lon="-1.19502">
        <ele>17.3</ele>
      </trkpt>
      <trkpt lat="45.73658" lon="-1.19505">
        <ele>17.2</ele>
      </trkpt>
      <trkpt lat="45.73707" lon="-1.19521">
        <ele>17.5</ele>
      </trkpt>
      <trkpt lat="45.7372" lon="-1.19527">
        <ele>17.5</ele>
      </trkpt>
      <trkpt lat="45.73742" lon="-1.19537">
        <ele>17.5</ele>
      </trkpt>
      <trkpt lat="45.73784" lon="-1.19548">
        <ele>16.8</ele>
      </trkpt>
      <trkpt lat="45.7386" lon="-1.19578">
        <ele>16</ele>
      </trkpt>
      <trkpt lat="45.73873" lon="-1.19584">
        <ele>16.4</ele>
      </trkpt>
      <trkpt lat="45.73881" lon="-1.19587">
        <ele>16.8</ele>
      </trkpt>
      <trkpt lat="45.73933" lon="-1.19608">
        <ele>17.7</ele>
      </trkpt>
      <trkpt lat="45.73982" lon="-1.19633">
        <ele>17.4</ele>
      </trkpt>
      <trkpt lat="45.74065" lon="-1.19653">
        <ele>18.1</ele>
      </trkpt>
      <trkpt lat="45.74085" lon="-1.1966">
        <ele>18.1</ele>
      </trkpt>
      <trkpt lat="45.74122" lon="-1.19672">
        <ele>17.6</ele>
      </trkpt>
      <trkpt lat="45.7424" lon="-1.19715">
        <ele>16.8</ele>
      </trkpt>
      <trkpt lat="45.74264" lon="-1.19724">
        <ele>17.1</ele>
      </trkpt>
      <trkpt lat="45.74297" lon="-1.19736">
        <ele>17.2</ele>
      </trkpt>
      <trkpt lat="45.74376" lon="-1.19762">
        <ele>17.4</ele>
      </trkpt>
      <trkpt lat="45.74455" lon="-1.19786">
        <ele>19.6</ele>
      </trkpt>
      <trkpt lat="45.74466" lon="-1.1979">
        <ele>20.1</ele>
      </trkpt>
      <trkpt lat="45.74576" lon="-1.19824">
        <ele>19.8</ele>
      </trkpt>
      <trkpt lat="45.7458" lon="-1.19826">
        <ele>19.8</ele>
      </trkpt>
      <trkpt lat="45.74583" lon="-1.19812">
        <ele>19.2</ele>
      </trkpt>
      <trkpt lat="45.74583" lon="-1.19741">
        <ele>16.7</ele>
      </trkpt>
      <trkpt lat="45.74584" lon="-1.19499">
        <ele>17.1</ele>
      </trkpt>
      <trkpt lat="45.74715" lon="-1.19487">
        <ele>19.4</ele>
      </trkpt>
      <trkpt lat="45.74716" lon="-1.19429">
        <ele>19.3</ele>
      </trkpt>
      <trkpt lat="45.74735" lon="-1.19042">
        <ele>18.2</ele>
      </trkpt>
      <trkpt lat="45.74737" lon="-1.19009">
        <ele>18.4</ele>
      </trkpt>
      <trkpt lat="45.74738" lon="-1.18978">
        <ele>17.7</ele>
      </trkpt>
      <trkpt lat="45.74742" lon="-1.18844">
        <ele>11.7</ele>
      </trkpt>
      <trkpt lat="45.7475" lon="-1.18581">
        <ele>11</ele>
      </trkpt>
      <trkpt lat="45.74779" lon="-1.18569">
        <ele>11</ele>
      </trkpt>
      <trkpt lat="45.74799" lon="-1.18561">
        <ele>11</ele>
      </trkpt>
      <trkpt lat="45.7483" lon="-1.18546">
        <ele>11</ele>
      </trkpt>
      <trkpt lat="45.74854" lon="-1.18542">
        <ele>10.8</ele>
      </trkpt>
      <trkpt lat="45.74878" lon="-1.1853">
        <ele>10.6</ele>
      </trkpt>
      <trkpt lat="45.74907" lon="-1.185">
        <ele>11</ele>
      </trkpt>
      <trkpt lat="45.7495" lon="-1.18457">
        <ele>11.1</ele>
      </trkpt>
      <trkpt lat="45.74984" lon="-1.18439">
        <ele>10.5</ele>
      </trkpt>
      <trkpt lat="45.75042" lon="-1.18399">
        <ele>10</ele>
      </trkpt>
      <trkpt lat="45.75077" lon="-1.18381">
        <ele>9.6</ele>
      </trkpt>
      <trkpt lat="45.75142" lon="-1.1835">
        <ele>10.5</ele>
      </trkpt>
      <trkpt lat="45.75189" lon="-1.18317">
        <ele>10.5</ele>
      </trkpt>
      <trkpt lat="45.75195" lon="-1.18313">
        <ele>10.3</ele>
      </trkpt>
      <trkpt lat="45.75219" lon="-1.18303">
        <ele>9.7</ele>
      </trkpt>
      <trkpt lat="45.75243" lon="-1.1822">
        <ele>9.2</ele>
      </trkpt>
      <trkpt lat="45.75225" lon="-1.18157">
        <ele>9.8</ele>
      </trkpt>
      <trkpt lat="45.75204" lon="-1.18139">
        <ele>10.8</ele>
      </trkpt>
      <trkpt lat="45.75192" lon="-1.1812">
        <ele>11.5</ele>
      </trkpt>
      <trkpt lat="45.75189" lon="-1.18097">
        <ele>12.1</ele>
      </trkpt>
      <trkpt lat="45.75157" lon="-1.1807">
        <ele>13.1</ele>
      </trkpt>
      <trkpt lat="45.75152" lon="-1.18062">
        <ele>13.2</ele>
      </trkpt>
      <trkpt lat="45.75141" lon="-1.18022">
        <ele>13.5</ele>
      </trkpt>
      <trkpt lat="45.75144" lon="-1.17979">
        <ele>13.7</ele>
      </trkpt>
      <trkpt lat="45.75129" lon="-1.17953">
        <ele>13.7</ele>
      </trkpt>
      <trkpt lat="45.75126" lon="-1.1794">
        <ele>13.8</ele>
      </trkpt>
      <trkpt lat="45.7513" lon="-1.17889">
        <ele>13.2</ele>
      </trkpt>
      <trkpt lat="45.75131" lon="-1.17884">
        <ele>13.1</ele>
      </trkpt>
      <trkpt lat="45.75147" lon="-1.1784">
        <ele>11.6</ele>
      </trkpt>
      <trkpt lat="45.75152" lon="-1.17844">
        <ele>11.6</ele>
      </trkpt>
      <trkpt lat="45.75231" lon="-1.17884">
        <ele>12.4</ele>
      </trkpt>
      <trkpt lat="45.75268" lon="-1.17902">
        <ele>11.9</ele>
      </trkpt>
      <trkpt lat="45.75301" lon="-1.17925">
        <ele>11.3</ele>
      </trkpt>
      <trkpt lat="45.75323" lon="-1.17938">
        <ele>10.7</ele>
      </trkpt>
      <trkpt lat="45.75334" lon="-1.17944">
        <ele>10.3</ele>
      </trkpt>
      <trkpt lat="45.75344" lon="-1.17954">
        <ele>10</ele>
      </trkpt>
      <trkpt lat="45.75395" lon="-1.17999">
        <ele>8.3</ele>
      </trkpt>
      <trkpt lat="45.75406" lon="-1.18113">
        <ele>9</ele>
      </trkpt>
      <trkpt lat="45.75407" lon="-1.18142">
        <ele>9</ele>
      </trkpt>
      <trkpt lat="45.75435" lon="-1.18141">
        <ele>9.3</ele>
      </trkpt>
      <trkpt lat="45.75499" lon="-1.18136">
        <ele>10.2</ele>
      </trkpt>
      <trkpt lat="45.7549" lon="-1.18162">
        <ele>10.7</ele>
      </trkpt>
      <trkpt lat="45.75472" lon="-1.18258">
        <ele>11.3</ele>
      </trkpt>
      <trkpt lat="45.75453" lon="-1.18319">
        <ele>10.9</ele>
      </trkpt>
      <trkpt lat="45.75438" lon="-1.18355">
        <ele>10.6</ele>
      </trkpt>
      <trkpt lat="45.75423" lon="-1.18388">
        <ele>10.2</ele>
      </trkpt>
      <trkpt lat="45.75415" lon="-1.18413">
        <ele>10</ele>
      </trkpt>
      <trkpt lat="45.75408" lon="-1.18437">
        <ele>10.1</ele>
      </trkpt>
      <trkpt lat="45.7539" lon="-1.18629">
        <ele>10.8</ele>
      </trkpt>
      <trkpt lat="45.75383" lon="-1.18673">
        <ele>11</ele>
      </trkpt>
      <trkpt lat="45.75359" lon="-1.1878">
        <ele>10.7</ele>
      </trkpt>
      <trkpt lat="45.75352" lon="-1.18813">
        <ele>10.8</ele>
      </trkpt>
      <trkpt lat="45.7535" lon="-1.18858">
        <ele>10.9</ele>
      </trkpt>
      <trkpt lat="45.75353" lon="-1.18905">
        <ele>11</ele>
      </trkpt>
      <trkpt lat="45.75357" lon="-1.18927">
        <ele>11</ele>
      </trkpt>
      <trkpt lat="45.75367" lon="-1.1896">
        <ele>10.8</ele>
      </trkpt>
      <trkpt lat="45.75374" lon="-1.18986">
        <ele>10.6</ele>
      </trkpt>
      <trkpt lat="45.75374" lon="-1.19011">
        <ele>10.4</ele>
      </trkpt>
      <trkpt lat="45.7536" lon="-1.19115">
        <ele>10.4</ele>
      </trkpt>
      <trkpt lat="45.75347" lon="-1.19175">
        <ele>10.8</ele>
      </trkpt>
      <trkpt lat="45.75347" lon="-1.19195">
        <ele>11.1</ele>
      </trkpt>
      <trkpt lat="45.75351" lon="-1.19227">
        <ele>11.5</ele>
      </trkpt>
      <trkpt lat="45.75357" lon="-1.19253">
        <ele>11.7</ele>
      </trkpt>
      <trkpt lat="45.75387" lon="-1.19357">
        <ele>10</ele>
      </trkpt>
      <trkpt lat="45.754" lon="-1.19396">
        <ele>9.3</ele>
      </trkpt>
      <trkpt lat="45.75405" lon="-1.19412">
        <ele>9.1</ele>
      </trkpt>
      <trkpt lat="45.75447" lon="-1.19413">
        <ele>9.7</ele>
      </trkpt>
      <trkpt lat="45.7548" lon="-1.19414">
        <ele>10.5</ele>
      </trkpt>
      <trkpt lat="45.75489" lon="-1.19441">
        <ele>11.1</ele>
      </trkpt>
      <trkpt lat="45.7551" lon="-1.19481">
        <ele>11.9</ele>
      </trkpt>
      <trkpt lat="45.75519" lon="-1.19601">
        <ele>13.1</ele>
      </trkpt>
      <trkpt lat="45.75518" lon="-1.19783">
        <ele>10.8</ele>
      </trkpt>
      <trkpt lat="45.75515" lon="-1.19825">
        <ele>10.8</ele>
      </trkpt>
      <trkpt lat="45.75524" lon="-1.19888">
        <ele>12.4</ele>
      </trkpt>
      <trkpt lat="45.75527" lon="-1.19936">
        <ele>15</ele>
      </trkpt>
      <trkpt lat="45.75528" lon="-1.19967">
        <ele>17.6</ele>
      </trkpt>
      <trkpt lat="45.75577" lon="-1.20166">
        <ele>23.9</ele>
      </trkpt>
      <trkpt lat="45.75569" lon="-1.20345">
        <ele>27.4</ele>
      </trkpt>
      <trkpt lat="45.75565" lon="-1.20426">
        <ele>25.1</ele>
      </trkpt>
      <trkpt lat="45.75565" lon="-1.20467">
        <ele>26.4</ele>
      </trkpt>
      <trkpt lat="45.75559" lon="-1.20515">
        <ele>27.5</ele>
      </trkpt>
      <trkpt lat="45.75562" lon="-1.20541">
        <ele>27.3</ele>
      </trkpt>
      <trkpt lat="45.75587" lon="-1.20644">
        <ele>23.6</ele>
      </trkpt>
      <trkpt lat="45.75567" lon="-1.20782">
        <ele>20.3</ele>
      </trkpt>
      <trkpt lat="45.75561" lon="-1.20818">
        <ele>20.6</ele>
      </trkpt>
      <trkpt lat="45.75554" lon="-1.20858">
        <ele>23</ele>
      </trkpt>
      <trkpt lat="45.75554" lon="-1.20876">
        <ele>24.5</ele>
      </trkpt>
      <trkpt lat="45.75557" lon="-1.21001">
        <ele>32.6</ele>
      </trkpt>
      <trkpt lat="45.75558" lon="-1.2107">
        <ele>36.4</ele>
      </trkpt>
      <trkpt lat="45.75562" lon="-1.21199">
        <ele>41.2</ele>
      </trkpt>
      <trkpt lat="45.75568" lon="-1.21567">
        <ele>24.2</ele>
      </trkpt>
      <trkpt lat="45.7557" lon="-1.2162">
        <ele>20.9</ele>
      </trkpt>
      <trkpt lat="45.75573" lon="-1.21708">
        <ele>15.7</ele>
      </trkpt>
      <trkpt lat="45.75574" lon="-1.21763">
        <ele>14.3</ele>
      </trkpt>
      <trkpt lat="45.75576" lon="-1.21869">
        <ele>20.3</ele>
      </trkpt>
      <trkpt lat="45.75584" lon="-1.22145">
        <ele>15.1</ele>
      </trkpt>
      <trkpt lat="45.75604" lon="-1.22107">
        <ele>19.1</ele>
      </trkpt>
      <trkpt lat="45.75617" lon="-1.22086">
        <ele>21.2</ele>
      </trkpt>
      <trkpt lat="45.75622" lon="-1.22073">
        <ele>21.9</ele>
      </trkpt>
      <trkpt lat="45.75623" lon="-1.22057">
        <ele>22.3</ele>
      </trkpt>
      <trkpt lat="45.75633" lon="-1.22043">
        <ele>23.4</ele>
      </trkpt>
      <trkpt lat="45.75633" lon="-1.22039">
        <ele>23.5</ele>
      </trkpt>
      <trkpt lat="45.75634" lon="-1.22031">
        <ele>23.7</ele>
      </trkpt>
      <trkpt lat="45.75642" lon="-1.22029">
        <ele>24.5</ele>
      </trkpt>
      <trkpt lat="45.75651" lon="-1.22001">
        <ele>25.7</ele>
      </trkpt>
    </trkseg>
  </trk>
</gpx>